Wetterdaten: Samstag, 20.08.2022
Datum Zeit Temp. Aussen Temp. o. S. Temp +5cm Feuchte Auss Luftdruck Regen Sonnenschein Regendauer Solar Windben Empfang
20.08.2022 00:00 20,7 C 19,4 C 16,1 C 94 % 1015,5 hPa 0,0 l/m 0 min 0 min 0 W/m 6,4 km/h (2 Bft) 100,00 %
20.08.2022 00:02 20,6 C 19,4 C 16,1 C 94 % 1015,5 hPa 0,0 l/m 0 min 0 min 0 W/m 3,2 km/h (1 Bft) 97,67 %
20.08.2022 00:04 20,6 C 19,4 C 16,1 C 94 % 1015,5 hPa 0,0 l/m 0 min 0 min 0 W/m 3,2 km/h (1 Bft) 97,87 %
20.08.2022 00:08 20,6 C 19,4 C 16,1 C 94 % 1015,5 hPa 0,0 l/m 0 min 0 min 0 W/m 3,2 km/h (1 Bft) 96,84 %
20.08.2022 00:10 20,6 C 19,4 C 16,1 C 94 % 1015,5 hPa 0,0 l/m 0 min 0 min 0 W/m 3,2 km/h (1 Bft) 97,87 %
20.08.2022 00:12 20,6 C 19,4 C 16,1 C 94 % 1015,5 hPa 0,0 l/m 0 min 0 min 0 W/m 0,0 km/h (0 Bft) 95,83 %
20.08.2022 00:14 20,6 C 19,4 C 16,1 C 94 % 1015,5 hPa 0,0 l/m 0 min 0 min 0 W/m 3,2 km/h (1 Bft) 98,28 %
20.08.2022 00:16 20,6 C 19,4 C 16,1 C 94 % 1015,5 hPa 0,0 l/m 0 min 0 min 0 W/m 0,0 km/h (0 Bft) 97,87 %
20.08.2022 00:18 20,6 C 19,4 C 16,1 C 94 % 1015,5 hPa 0,0 l/m 0 min 0 min 0 W/m 3,2 km/h (1 Bft) 95,74 %
20.08.2022 00:20 20,6 C 19,4 C 16,1 C 94 % 1015,5 hPa 0,0 l/m 0 min 0 min 0 W/m 0,0 km/h (0 Bft) 97,87 %
20.08.2022 00:22 20,5 C 19,4 C 16,1 C 94 % 1015,5 hPa 0,0 l/m 0 min 0 min 0 W/m 3,2 km/h (1 Bft) 97,87 %
20.08.2022 00:24 20,5 C 19,4 C 16,1 C 94 % 1015,5 hPa 0,0 l/m 0 min 0 min 0 W/m 3,2 km/h (1 Bft) 97,83 %
20.08.2022 00:26 20,5 C 19,4 C 16,1 C 95 % 1015,5 hPa 0,0 l/m 0 min 0 min 0 W/m 3,2 km/h (1 Bft) 97,87 %
20.08.2022 00:28 20,5 C 19,4 C 16,1 C 95 % 1015,5 hPa 0,0 l/m 0 min 0 min 0 W/m 3,2 km/h (1 Bft) 97,87 %
20.08.2022 00:30 20,5 C 19,4 C 16,1 C 95 % 1015,6 hPa 0,0 l/m 0 min 0 min 0 W/m 3,2 km/h (1 Bft) 97,87 %
20.08.2022 00:32 20,4 C 19,4 C 16,1 C 95 % 1015,5 hPa 0,0 l/m 0 min 0 min 0 W/m 3,2 km/h (1 Bft) 97,87 %
20.08.2022 00:34 20,4 C 19,4 C 16,1 C 95 % 1015,6 hPa 0,0 l/m 0 min 0 min 0 W/m 6,4 km/h (2 Bft) 97,87 %
20.08.2022 00:36 20,4 C 19,4 C 16,1 C 95 % 1015,6 hPa 0,0 l/m 0 min 0 min 0 W/m 3,2 km/h (1 Bft) 100,00 %
20.08.2022 00:38 20,4 C 19,4 C 16,1 C 95 % 1015,6 hPa 0,0 l/m 0 min 0 min 0 W/m 3,2 km/h (1 Bft) 100,00 %
20.08.2022 00:40 20,4 C 19,4 C 16,1 C 95 % 1015,6 hPa 0,0 l/m 0 min 0 min 0 W/m 3,2 km/h (1 Bft) 97,14 %
20.08.2022 00:42 20,4 C 19,4 C 16,1 C 95 % 1015,6 hPa 0,0 l/m 0 min 0 min 0 W/m 0,0 km/h (0 Bft) 100,00 %
20.08.2022 00:44 20,4 C 19,4 C 16,1 C 95 % 1015,6 hPa 0,0 l/m 0 min 0 min 0 W/m 0,0 km/h (0 Bft) 100,00 %
20.08.2022 00:46 20,4 C 19,4 C 16,1 C 95 % 1015,7 hPa 0,0 l/m 0 min 0 min 0 W/m 0,0 km/h (0 Bft) 100,00 %
20.08.2022 00:48 20,3 C 19,4 C 16,1 C 95 % 1015,6 hPa 0,0 l/m 0 min 0 min 0 W/m 3,2 km/h (1 Bft) 100,00 %
20.08.2022 00:50 20,3 C 19,4 C 16,1 C 95 % 1015,7 hPa 0,0 l/m 0 min 0 min 0 W/m 0,0 km/h (0 Bft) 100,00 %
20.08.2022 00:52 20,3 C 19,4 C 16,1 C 95 % 1015,7 hPa 0,0 l/m 0 min 0 min 0 W/m 3,2 km/h (1 Bft) 100,00 %
20.08.2022 00:54 20,3 C 19,4 C 16,1 C 95 % 1015,7 hPa 0,0 l/m 0 min 0 min 0 W/m 3,2 km/h (1 Bft) 100,00 %
20.08.2022 00:56 20,3 C 19,4 C 16,1 C 95 % 1015,7 hPa 0,0 l/m 0 min 0 min 0 W/m 3,2 km/h (1 Bft) 100,00 %
20.08.2022 00:58 20,3 C 19,4 C 16,1 C 95 % 1015,8 hPa 0,0 l/m 0 min 0 min 0 W/m 6,4 km/h (2 Bft) 100,00 %
20.08.2022 01:00 20,3 C 19,4 C 16,1 C 95 % 1015,8 hPa 0,0 l/m 0 min 0 min 0 W/m 3,2 km/h (1 Bft) 100,00 %
20.08.2022 01:02 20,3 C 19,4 C 16,1 C 95 % 1015,8 hPa 0,0 l/m 0 min 0 min 0 W/m 3,2 km/h (1 Bft) 100,00 %
20.08.2022 01:04 20,3 C 19,4 C 16,1 C 95 % 1015,8 hPa 0,0 l/m 0 min 0 min 0 W/m 6,4 km/h (2 Bft) 100,00 %
20.08.2022 01:06 20,3 C 19,4 C 16,1 C 95 % 1015,8 hPa 0,0 l/m 0 min 0 min 0 W/m 3,2 km/h (1 Bft) 100,00 %
20.08.2022 01:08 20,3 C 19,4 C 16,1 C 95 % 1015,8 hPa 0,0 l/m 0 min 0 min 0 W/m 6,4 km/h (2 Bft) 100,00 %
20.08.2022 01:10 20,3 C 19,4 C 16,1 C 95 % 1015,9 hPa 0,0 l/m 0 min 0 min 0 W/m 3,2 km/h (1 Bft) 97,83 %
20.08.2022 01:12 20,3 C 19,4 C 16,1 C 95 % 1015,9 hPa 0,0 l/m 0 min 0 min 0 W/m 3,2 km/h (1 Bft) 97,87 %
20.08.2022 01:14 20,3 C 19,4 C 16,1 C 95 % 1015,9 hPa 0,0 l/m 0 min 0 min 0 W/m 3,2 km/h (1 Bft) 97,87 %
20.08.2022 01:16 20,3 C 19,4 C 16,1 C 95 % 1015,8 hPa 0,0 l/m 0 min 0 min 0 W/m 6,4 km/h (2 Bft) 97,87 %
20.08.2022 01:18 20,3 C 19,4 C 16,1 C 95 % 1015,8 hPa 0,0 l/m 0 min 0 min 0 W/m 3,2 km/h (1 Bft) 95,74 %
20.08.2022 01:20 20,3 C 19,4 C 16,1 C 95 % 1015,8 hPa 0,0 l/m 0 min 0 min 0 W/m 3,2 km/h (1 Bft) 97,87 %
20.08.2022 01:22 20,3 C 19,4 C 16,1 C 95 % 1015,9 hPa 0,0 l/m 0 min 2 min 0 W/m 6,4 km/h (2 Bft) 93,48 %
20.08.2022 01:24 20,3 C 19,4 C 16,1 C 95 % 1015,8 hPa 0,0 l/m 0 min 2 min 0 W/m 6,4 km/h (2 Bft) 97,87 %
20.08.2022 01:26 20,3 C 19,4 C 16,1 C 95 % 1015,8 hPa 0,0 l/m 0 min 2 min 0 W/m 3,2 km/h (1 Bft) 97,87 %
20.08.2022 01:28 20,3 C 19,4 C 16,1 C 95 % 1015,8 hPa 0,0 l/m 0 min 2 min 0 W/m 3,2 km/h (1 Bft) 91,49 %
20.08.2022 01:30 20,3 C 19,4 C 16,1 C 95 % 1015,8 hPa 0,0 l/m 0 min 2 min 0 W/m 3,2 km/h (1 Bft) 95,74 %
20.08.2022 01:32 20,2 C 19,4 C 15,6 C 95 % 1015,8 hPa 0,2 l/m 0 min 2 min 0 W/m 6,4 km/h (2 Bft) 97,87 %
20.08.2022 01:34 20,2 C 19,4 C 15,6 C 95 % 1015,7 hPa 0,0 l/m 0 min 2 min 0 W/m 12,9 km/h (3 Bft) 100,00 %
20.08.2022 01:36 20,2 C 18,9 C 15,6 C 95 % 1015,8 hPa 0,0 l/m 0 min 2 min 0 W/m 3,2 km/h (1 Bft) 97,87 %
20.08.2022 01:38 20,2 C 18,9 C 15,6 C 95 % 1015,8 hPa 0,0 l/m 0 min 2 min 0 W/m 3,2 km/h (1 Bft) 93,62 %
20.08.2022 01:40 20,2 C 18,9 C 15,6 C 95 % 1015,7 hPa 0,2 l/m 0 min 2 min 0 W/m 6,4 km/h (2 Bft) 95,74 %
20.08.2022 01:42 20,2 C 18,9 C 15,6 C 95 % 1015,7 hPa 0,0 l/m 0 min 2 min 0 W/m 3,2 km/h (1 Bft) 93,62 %
20.08.2022 01:44 20,2 C 18,9 C 15,6 C 95 % 1015,7 hPa 0,2 l/m 0 min 2 min 0 W/m 3,2 km/h (1 Bft) 93,62 %
20.08.2022 01:46 20,2 C 18,9 C 15,6 C 96 % 1015,7 hPa 0,0 l/m 0 min 2 min 0 W/m 6,4 km/h (2 Bft) 93,48 %
20.08.2022 01:48 20,2 C 18,9 C 15,6 C 96 % 1015,7 hPa 0,0 l/m 0 min 2 min 0 W/m 3,2 km/h (1 Bft) 95,74 %
20.08.2022 01:50 20,2 C 18,9 C 15,6 C 96 % 1015,7 hPa 0,2 l/m 0 min 2 min 0 W/m 3,2 km/h (1 Bft) 95,74 %
20.08.2022 01:52 20,2 C 18,9 C 15,6 C 96 % 1015,8 hPa 0,2 l/m 0 min 2 min 0 W/m 6,4 km/h (2 Bft) 95,74 %
20.08.2022 01:54 20,2 C 18,9 C 15,6 C 96 % 1015,7 hPa 0,0 l/m 0 min 2 min 0 W/m 3,2 km/h (1 Bft) 97,87 %
20.08.2022 01:56 20,1 C 18,9 C 15,6 C 96 % 1015,7 hPa 0,0 l/m 0 min 2 min 0 W/m 3,2 km/h (1 Bft) 93,62 %
20.08.2022 01:58 20,1 C 18,9 C 15,6 C 96 % 1015,6 hPa 0,2 l/m 0 min 2 min 0 W/m 3,2 km/h (1 Bft) 89,13 %
20.08.2022 02:00 20,1 C 18,9 C 15,6 C 96 % 1015,6 hPa 0,0 l/m 0 min 2 min 0 W/m 6,4 km/h (2 Bft) 95,74 %
20.08.2022 02:02 20,1 C 18,9 C 15,6 C 96 % 1015,7 hPa 0,2 l/m 0 min 2 min 0 W/m 9,7 km/h (2 Bft) 95,74 %
20.08.2022 02:04 20,1 C 18,9 C 15,6 C 96 % 1015,6 hPa 0,0 l/m 0 min 2 min 0 W/m 3,2 km/h (1 Bft) 93,62 %
20.08.2022 02:06 20,1 C 18,9 C 15,6 C 96 % 1015,7 hPa 0,2 l/m 0 min 2 min 0 W/m 3,2 km/h (1 Bft) 95,74 %
20.08.2022 02:08 20,1 C 18,9 C 15,6 C 96 % 1015,6 hPa 0,2 l/m 0 min 2 min 0 W/m 3,2 km/h (1 Bft) 93,62 %
20.08.2022 02:10 20,1 C 18,9 C 15,6 C 96 % 1015,6 hPa 0,0 l/m 0 min 2 min 0 W/m 6,4 km/h (2 Bft) 95,65 %
20.08.2022 02:12 20,1 C 18,9 C 15,6 C 96 % 1015,6 hPa 0,2 l/m 0 min 2 min 0 W/m 3,2 km/h (1 Bft) 95,74 %
20.08.2022 02:14 20,1 C 18,9 C 15,0 C 97 % 1015,6 hPa 0,2 l/m 0 min 2 min 0 W/m 6,4 km/h (2 Bft) 95,74 %
20.08.2022 02:16 20,1 C 18,9 C 15,0 C 97 % 1015,5 hPa 0,0 l/m 0 min 2 min 0 W/m 3,2 km/h (1 Bft) 93,62 %
20.08.2022 02:18 20,0 C 18,9 C 15,6 C 97 % 1015,5 hPa 0,2 l/m 0 min 2 min 0 W/m 3,2 km/h (1 Bft) 97,87 %
20.08.2022 02:20 20,0 C 18,9 C 15,6 C 97 % 1015,4 hPa 0,2 l/m 0 min 2 min 0 W/m 3,2 km/h (1 Bft) 95,74 %
20.08.2022 02:22 20,0 C 18,9 C 15,6 C 96 % 1015,5 hPa 0,0 l/m 0 min 2 min 0 W/m 6,4 km/h (2 Bft) 95,65 %
20.08.2022 02:24 19,9 C 18,9 C 15,6 C 97 % 1015,5 hPa 0,2 l/m 0 min 2 min 0 W/m 3,2 km/h (1 Bft) 95,74 %
20.08.2022 02:26 19,9 C 18,9 C 15,0 C 97 % 1015,5 hPa 0,0 l/m 0 min 2 min 0 W/m 3,2 km/h (1 Bft) 95,74 %
20.08.2022 02:28 19,9 C 18,9 C 15,0 C 97 % 1015,6 hPa 0,2 l/m 0 min 2 min 0 W/m 3,2 km/h (1 Bft) 97,87 %
20.08.2022 02:30 19,9 C 18,9 C 15,6 C 97 % 1015,5 hPa 0,0 l/m 0 min 2 min 0 W/m 3,2 km/h (1 Bft) 97,87 %
20.08.2022 02:32 19,9 C 18,9 C 15,0 C 97 % 1015,5 hPa 0,0 l/m 0 min 2 min 0 W/m 3,2 km/h (1 Bft) 100,00 %
20.08.2022 02:34 19,9 C 18,9 C 15,6 C 97 % 1015,5 hPa 0,0 l/m 0 min 2 min 0 W/m 3,2 km/h (1 Bft) 100,00 %
20.08.2022 02:36 19,9 C 18,9 C 15,6 C 97 % 1015,5 hPa 0,0 l/m 0 min 2 min 0 W/m 3,2 km/h (1 Bft) 97,87 %
20.08.2022 02:38 19,9 C 18,9 C 15,0 C 97 % 1015,4 hPa 0,0 l/m 0 min 2 min 0 W/m 3,2 km/h (1 Bft) 100,00 %
20.08.2022 02:40 19,8 C 18,9 C 15,0 C 97 % 1015,5 hPa 0,0 l/m 0 min 2 min 0 W/m 3,2 km/h (1 Bft) 95,74 %
20.08.2022 02:42 19,8 C 18,9 C 15,6 C 97 % 1015,5 hPa 0,0 l/m 0 min 2 min 0 W/m 3,2 km/h (1 Bft) 100,00 %
20.08.2022 02:44 19,8 C 18,9 C 15,0 C 97 % 1015,4 hPa 0,0 l/m 0 min 0 min 0 W/m 3,2 km/h (1 Bft) 100,00 %
20.08.2022 02:46 19,8 C 18,9 C 15,6 C 97 % 1015,4 hPa 0,0 l/m 0 min 0 min 0 W/m 3,2 km/h (1 Bft) 100,00 %
20.08.2022 02:48 19,8 C 18,9 C 15,6 C 97 % 1015,5 hPa 0,0 l/m 0 min 0 min 0 W/m 6,4 km/h (2 Bft) 100,00 %
20.08.2022 02:50 19,8 C 18,9 C 15,6 C 97 % 1015,4 hPa 0,0 l/m 0 min 0 min 0 W/m 3,2 km/h (1 Bft) 100,00 %
20.08.2022 02:52 19,8 C 18,9 C 15,6 C 97 % 1015,4 hPa 0,0 l/m 0 min 0 min 0 W/m 3,2 km/h (1 Bft) 100,00 %
20.08.2022 02:54 19,8 C 18,9 C 15,0 C 97 % 1015,4 hPa 0,0 l/m 0 min 0 min 0 W/m 6,4 km/h (2 Bft) 100,00 %
20.08.2022 02:56 19,8 C 18,9 C 15,0 C 97 % 1015,4 hPa 0,0 l/m 0 min 0 min 0 W/m 6,4 km/h (2 Bft) 100,00 %
20.08.2022 02:58 19,7 C 18,9 C 15,0 C 97 % 1015,3 hPa 0,0 l/m 0 min 2 min 0 W/m 6,4 km/h (2 Bft) 100,00 %
20.08.2022 03:00 19,7 C 18,9 C 15,0 C 97 % 1015,4 hPa 0,0 l/m 0 min 2 min 0 W/m 3,2 km/h (1 Bft) 100,00 %
20.08.2022 03:02 19,7 C 18,9 C 15,0 C 97 % 1015,4 hPa 0,0 l/m 0 min 2 min 0 W/m 3,2 km/h (1 Bft) 100,00 %
20.08.2022 03:04 19,7 C 18,9 C 15,0 C 97 % 1015,4 hPa 0,2 l/m 0 min 2 min 0 W/m 3,2 km/h (1 Bft) 100,00 %
20.08.2022 03:06 19,7 C 18,9 C 15,0 C 97 % 1015,4 hPa 0,0 l/m 0 min 2 min 0 W/m 0,0 km/h (0 Bft) 97,87 %
20.08.2022 03:08 19,7 C 18,9 C 15,0 C 97 % 1015,4 hPa 0,0 l/m 0 min 2 min 0 W/m 3,2 km/h (1 Bft) 100,00 %
20.08.2022 03:10 19,7 C 18,9 C 15,0 C 97 % 1015,4 hPa 0,0 l/m 0 min 2 min 0 W/m 3,2 km/h (1 Bft) 100,00 %
20.08.2022 03:12 19,7 C 18,9 C 15,0 C 97 % 1015,4 hPa 0,0 l/m 0 min 2 min 0 W/m 3,2 km/h (1 Bft) 100,00 %
20.08.2022 03:14 19,6 C 18,9 C 15,0 C 97 % 1015,4 hPa 0,0 l/m 0 min 2 min 0 W/m 6,4 km/h (2 Bft) 100,00 %
20.08.2022 03:16 19,6 C 18,9 C 15,0 C 97 % 1015,4 hPa 0,0 l/m 0 min 0 min 0 W/m 3,2 km/h (1 Bft) 100,00 %
20.08.2022 03:18 19,6 C 18,3 C 15,0 C 97 % 1015,4 hPa 0,0 l/m 0 min 0 min 0 W/m 3,2 km/h (1 Bft) 97,87 %
20.08.2022 03:20 19,6 C 18,3 C 15,0 C 97 % 1015,5 hPa 0,0 l/m 0 min 0 min 0 W/m 6,4 km/h (2 Bft) 100,00 %
20.08.2022 03:22 19,6 C 18,3 C 15,0 C 97 % 1015,5 hPa 0,0 l/m 0 min 0 min 0 W/m 3,2 km/h (1 Bft) 100,00 %
20.08.2022 03:24 19,6 C 18,3 C 15,0 C 97 % 1015,5 hPa 0,0 l/m 0 min 0 min 0 W/m 3,2 km/h (1 Bft) 100,00 %
20.08.2022 03:26 19,6 C 18,3 C 15,0 C 97 % 1015,5 hPa 0,0 l/m 0 min 0 min 0 W/m 3,2 km/h (1 Bft) 100,00 %
20.08.2022 03:28 19,5 C 18,3 C 15,0 C 97 % 1015,6 hPa 0,0 l/m 0 min 0 min 0 W/m 0,0 km/h (0 Bft) 100,00 %
20.08.2022 03:30 19,5 C 18,3 C 15,0 C 97 % 1015,5 hPa 0,0 l/m 0 min 0 min 0 W/m 3,2 km/h (1 Bft) 100,00 %
20.08.2022 03:32 19,4 C 18,3 C 15,0 C 98 % 1015,6 hPa 0,0 l/m 0 min 0 min 0 W/m 6,4 km/h (2 Bft) 100,00 %
20.08.2022 03:34 19,4 C 18,3 C 15,0 C 98 % 1015,6 hPa 0,0 l/m 0 min 0 min 0 W/m 3,2 km/h (1 Bft) 100,00 %
20.08.2022 03:36 19,4 C 18,3 C 15,0 C 98 % 1015,5 hPa 0,0 l/m 0 min 0 min 0 W/m 3,2 km/h (1 Bft) 100,00 %
20.08.2022 03:38 19,4 C 18,3 C 15,0 C 98 % 1015,5 hPa 0,0 l/m 0 min 0 min 0 W/m 3,2 km/h (1 Bft) 97,87 %
20.08.2022 03:40 19,4 C 18,3 C 15,0 C 98 % 1015,5 hPa 0,0 l/m 0 min 0 min 0 W/m 3,2 km/h (1 Bft) 100,00 %
20.08.2022 03:42 19,4 C 18,3 C 15,0 C 98 % 1015,5 hPa 0,0 l/m 0 min 0 min 0 W/m 6,4 km/h (2 Bft) 100,00 %
20.08.2022 03:44 19,4 C 18,3 C 15,0 C 98 % 1015,5 hPa 0,0 l/m 0 min 0 min 0 W/m 3,2 km/h (1 Bft) 100,00 %
20.08.2022 03:46 19,4 C 18,3 C 15,0 C 98 % 1015,5 hPa 0,0 l/m 0 min 0 min 0 W/m 3,2 km/h (1 Bft) 100,00 %
20.08.2022 03:48 19,4 C 18,3 C 15,0 C 98 % 1015,5 hPa 0,0 l/m 0 min 0 min 0 W/m 3,2 km/h (1 Bft) 97,87 %
20.08.2022 03:50 19,3 C 18,3 C 15,0 C 98 % 1015,5 hPa 0,0 l/m 0 min 0 min 0 W/m 6,4 km/h (2 Bft) 97,87 %
20.08.2022 03:52 19,3 C 18,3 C 15,0 C 98 % 1015,6 hPa 0,0 l/m 0 min 0 min 0 W/m 3,2 km/h (1 Bft) 95,74 %
20.08.2022 03:54 19,3 C 18,3 C 15,0 C 98 % 1015,6 hPa 0,0 l/m 0 min 0 min 0 W/m 3,2 km/h (1 Bft) 97,87 %
20.08.2022 03:56 19,3 C 18,3 C 15,0 C 98 % 1015,6 hPa 0,0 l/m 0 min 0 min 0 W/m 3,2 km/h (1 Bft) 97,83 %
20.08.2022 03:58 19,3 C 18,3 C 15,0 C 98 % 1015,6 hPa 0,0 l/m 0 min 0 min 0 W/m 6,4 km/h (2 Bft) 97,87 %
20.08.2022 04:00 19,3 C 18,3 C 15,0 C 98 % 1015,6 hPa 0,0 l/m 0 min 0 min 0 W/m 3,2 km/h (1 Bft) 93,62 %
20.08.2022 04:02 19,3 C 18,3 C 15,0 C 98 % 1015,6 hPa 0,0 l/m 0 min 0 min 0 W/m 6,4 km/h (2 Bft) 96,55 %
20.08.2022 04:04 19,3 C 18,3 C 15,0 C 98 % 1015,5 hPa 0,0 l/m 0 min 0 min 0 W/m 3,2 km/h (1 Bft) 97,87 %
20.08.2022 04:06 19,3 C 18,3 C 15,0 C 98 % 1015,6 hPa 0,0 l/m 0 min 0 min 0 W/m 3,2 km/h (1 Bft) 93,48 %
20.08.2022 04:08 19,3 C 18,3 C 15,0 C 98 % 1015,6 hPa 0,0 l/m 0 min 0 min 0 W/m 3,2 km/h (1 Bft) 95,74 %
20.08.2022 04:10 19,3 C 18,3 C 15,0 C 98 % 1015,6 hPa 0,0 l/m 0 min 0 min 0 W/m 0,0 km/h (0 Bft) 95,74 %
20.08.2022 04:12 19,3 C 18,3 C 15,0 C 98 % 1015,6 hPa 0,0 l/m 0 min 0 min 0 W/m 3,2 km/h (1 Bft) 95,74 %
20.08.2022 04:14 19,3 C 18,3 C 15,0 C 98 % 1015,6 hPa 0,0 l/m 0 min 0 min 0 W/m 0,0 km/h (0 Bft) 93,62 %
20.08.2022 04:16 19,3 C 18,3 C 15,0 C 98 % 1015,6 hPa 0,0 l/m 0 min 0 min 0 W/m 0,0 km/h (0 Bft) 91,49 %
20.08.2022 04:18 19,3 C 18,3 C 15,0 C 98 % 1015,7 hPa 0,0 l/m 0 min 0 min 0 W/m 0,0 km/h (0 Bft) 95,65 %
20.08.2022 04:20 19,3 C 18,3 C 15,0 C 98 % 1015,7 hPa 0,0 l/m 0 min 0 min 0 W/m 3,2 km/h (1 Bft) 95,74 %
20.08.2022 04:22 19,3 C 18,3 C 15,0 C 98 % 1015,6 hPa 0,0 l/m 0 min 0 min 0 W/m 0,0 km/h (0 Bft) 93,62 %
20.08.2022 04:24 19,3 C 18,3 C 15,0 C 98 % 1015,6 hPa 0,0 l/m 0 min 0 min 0 W/m 0,0 km/h (0 Bft) 97,87 %
20.08.2022 04:26 19,3 C 18,3 C 15,0 C 98 % 1015,6 hPa 0,0 l/m 0 min 0 min 0 W/m 0,0 km/h (0 Bft) 97,87 %
20.08.2022 04:28 19,3 C 18,3 C 15,0 C 98 % 1015,6 hPa 0,0 l/m 0 min 0 min 0 W/m 0,0 km/h (0 Bft) 95,74 %
20.08.2022 04:30 19,3 C 18,3 C 15,0 C 98 % 1015,6 hPa 0,0 l/m 0 min 2 min 0 W/m 3,2 km/h (1 Bft) 97,83 %
20.08.2022 04:32 19,3 C 18,3 C 15,0 C 98 % 1015,6 hPa 0,0 l/m 0 min 0 min 0 W/m 0,0 km/h (0 Bft) 95,74 %
20.08.2022 04:34 19,3 C 18,3 C 15,0 C 98 % 1015,6 hPa 0,0 l/m 0 min 0 min 0 W/m 6,4 km/h (2 Bft) 95,74 %
20.08.2022 04:36 19,3 C 18,3 C 15,0 C 98 % 1015,6 hPa 0,0 l/m 0 min 0 min 0 W/m 0,0 km/h (0 Bft) 95,74 %
20.08.2022 04:38 19,3 C 18,3 C 15,0 C 98 % 1015,6 hPa 0,0 l/m 0 min 0 min 0 W/m 0,0 km/h (0 Bft) 93,62 %
20.08.2022 04:40 19,3 C 18,3 C 15,0 C 98 % 1015,6 hPa 0,0 l/m 0 min 0 min 0 W/m 3,2 km/h (1 Bft) 95,74 %
20.08.2022 04:42 19,3 C 18,3 C 15,0 C 98 % 1015,6 hPa 0,0 l/m 0 min 0 min 0 W/m 3,2 km/h (1 Bft) 95,65 %
20.08.2022 04:44 19,3 C 18,3 C 15,0 C 98 % 1015,6 hPa 0,0 l/m 0 min 0 min 0 W/m 0,0 km/h (0 Bft) 95,74 %
20.08.2022 04:46 19,3 C 18,3 C 15,0 C 98 % 1015,6 hPa 0,0 l/m 0 min 0 min 0 W/m 0,0 km/h (0 Bft) 95,74 %
20.08.2022 04:48 19,3 C 18,3 C 15,0 C 98 % 1015,6 hPa 0,0 l/m 0 min 0 min 0 W/m 3,2 km/h (1 Bft) 97,87 %
20.08.2022 04:50 19,3 C 18,3 C 15,0 C 98 % 1015,5 hPa 0,0 l/m 0 min 0 min 0 W/m 0,0 km/h (0 Bft) 97,87 %
20.08.2022 04:52 19,3 C 18,3 C 15,0 C 98 % 1015,6 hPa 0,0 l/m 0 min 0 min 0 W/m 0,0 km/h (0 Bft) 95,74 %
20.08.2022 04:54 19,3 C 18,3 C 15,0 C 98 % 1015,6 hPa 0,0 l/m 0 min 0 min 0 W/m 3,2 km/h (1 Bft) 97,83 %
20.08.2022 04:56 19,3 C 18,3 C 15,0 C 98 % 1015,6 hPa 0,0 l/m 0 min 0 min 0 W/m 0,0 km/h (0 Bft) 97,87 %
20.08.2022 04:58 19,3 C 18,3 C 15,0 C 98 % 1015,6 hPa 0,0 l/m 0 min 0 min 0 W/m 3,2 km/h (1 Bft) 97,87 %
20.08.2022 05:00 19,3 C 18,3 C 15,0 C 98 % 1015,6 hPa 0,0 l/m 0 min 2 min 0 W/m 0,0 km/h (0 Bft) 97,87 %
20.08.2022 05:02 19,3 C 18,3 C 15,0 C 98 % 1015,6 hPa 0,2 l/m 0 min 0 min 0 W/m 0,0 km/h (0 Bft) 95,74 %
20.08.2022 05:04 19,3 C 18,3 C 15,0 C 98 % 1015,6 hPa 0,0 l/m 0 min 0 min 0 W/m 0,0 km/h (0 Bft) 97,87 %
20.08.2022 05:06 19,3 C 18,3 C 15,0 C 98 % 1015,5 hPa 0,0 l/m 0 min 0 min 0 W/m 3,2 km/h (1 Bft) 97,83 %
20.08.2022 05:08 19,3 C 18,3 C 15,0 C 98 % 1015,5 hPa 0,0 l/m 0 min 0 min 0 W/m 0,0 km/h (0 Bft) 97,87 %
20.08.2022 05:10 19,3 C 18,3 C 15,0 C 98 % 1015,5 hPa 0,0 l/m 0 min 0 min 0 W/m 0,0 km/h (0 Bft) 97,87 %
20.08.2022 05:12 19,3 C 18,3 C 15,0 C 98 % 1015,5 hPa 0,0 l/m 0 min 0 min 0 W/m 0,0 km/h (0 Bft) 97,87 %
20.08.2022 05:14 19,3 C 18,3 C 15,0 C 98 % 1015,4 hPa 0,0 l/m 0 min 0 min 0 W/m 0,0 km/h (0 Bft) 97,87 %
20.08.2022 05:16 19,3 C 18,3 C 15,0 C 98 % 1015,4 hPa 0,0 l/m 0 min 0 min 0 W/m 0,0 km/h (0 Bft) 95,74 %
20.08.2022 05:18 19,3 C 18,3 C 15,0 C 98 % 1015,4 hPa 0,0 l/m 0 min 0 min 0 W/m 0,0 km/h (0 Bft) 97,83 %
20.08.2022 05:20 19,3 C 18,3 C 15,0 C 98 % 1015,4 hPa 0,0 l/m 0 min 0 min 0 W/m 0,0 km/h (0 Bft) 93,62 %
20.08.2022 05:22 19,3 C 18,3 C 15,0 C 98 % 1015,4 hPa 0,0 l/m 0 min 0 min 0 W/m 0,0 km/h (0 Bft) 97,87 %
20.08.2022 05:24 19,3 C 18,3 C 15,0 C 98 % 1015,4 hPa 0,0 l/m 0 min 0 min 0 W/m 0,0 km/h (0 Bft) 100,00 %
20.08.2022 05:26 19,3 C 18,3 C 15,0 C 98 % 1015,4 hPa 0,0 l/m 0 min 0 min 0 W/m 0,0 km/h (0 Bft) 97,87 %
20.08.2022 05:28 19,3 C 18,3 C 15,0 C 98 % 1015,4 hPa 0,0 l/m 0 min 0 min 0 W/m 0,0 km/h (0 Bft) 100,00 %
20.08.2022 05:30 19,3 C 18,3 C 15,0 C 98 % 1015,3 hPa 0,0 l/m 0 min 0 min 0 W/m 0,0 km/h (0 Bft) 100,00 %
20.08.2022 05:32 19,3 C 18,3 C 15,0 C 98 % 1015,3 hPa 0,0 l/m 0 min 0 min 0 W/m 0,0 km/h (0 Bft) 95,74 %
20.08.2022 05:34 19,2 C 18,3 C 15,0 C 98 % 1015,4 hPa 0,0 l/m 0 min 0 min 0 W/m 0,0 km/h (0 Bft) 100,00 %
20.08.2022 05:36 19,2 C 18,3 C 15,0 C 98 % 1015,4 hPa 0,0 l/m 0 min 0 min 0 W/m 0,0 km/h (0 Bft) 100,00 %
20.08.2022 05:38 19,2 C 18,3 C 15,0 C 98 % 1015,4 hPa 0,0 l/m 0 min 0 min 0 W/m 0,0 km/h (0 Bft) 100,00 %
20.08.2022 05:40 19,2 C 18,3 C 15,0 C 98 % 1015,4 hPa 0,0 l/m 0 min 0 min 0 W/m 0,0 km/h (0 Bft) 97,87 %
20.08.2022 05:42 19,2 C 18,3 C 15,0 C 98 % 1015,4 hPa 0,0 l/m 0 min 2 min 0 W/m 0,0 km/h (0 Bft) 95,65 %
20.08.2022 05:44 19,2 C 18,3 C 15,0 C 98 % 1015,4 hPa 0,0 l/m 0 min 2 min 0 W/m 0,0 km/h (0 Bft) 97,87 %
20.08.2022 05:46 19,2 C 18,3 C 15,0 C 98 % 1015,4 hPa 0,2 l/m 0 min 2 min 0 W/m 0,0 km/h (0 Bft) 97,87 %
20.08.2022 05:48 19,3 C 18,3 C 15,0 C 98 % 1015,4 hPa 0,2 l/m 0 min 2 min 0 W/m 0,0 km/h (0 Bft) 97,87 %
20.08.2022 05:50 19,3 C 18,3 C 15,0 C 98 % 1015,4 hPa 0,4 l/m 0 min 2 min 0 W/m 3,2 km/h (1 Bft) 97,87 %
20.08.2022 05:52 19,3 C 18,3 C 15,0 C 98 % 1015,4 hPa 0,8 l/m 0 min 2 min 0 W/m 3,2 km/h (1 Bft) 97,83 %
20.08.2022 05:54 19,3 C 18,3 C 15,0 C 98 % 1015,4 hPa 0,8 l/m 0 min 2 min 0 W/m 6,4 km/h (2 Bft) 97,87 %
20.08.2022 05:56 19,3 C 18,3 C 15,0 C 98 % 1015,5 hPa 0,4 l/m 0 min 2 min 0 W/m 3,2 km/h (1 Bft) 97,87 %
20.08.2022 05:58 19,3 C 18,3 C 15,0 C 98 % 1015,5 hPa 0,4 l/m 0 min 2 min 0 W/m 3,2 km/h (1 Bft) 97,87 %
20.08.2022 06:00 19,2 C 18,3 C 15,0 C 98 % 1015,6 hPa 0,8 l/m 0 min 2 min 0 W/m 3,2 km/h (1 Bft) 97,87 %
20.08.2022 06:02 19,2 C 17,8 C 15,0 C 98 % 1015,6 hPa 0,4 l/m 0 min 2 min 0 W/m 3,2 km/h (1 Bft) 95,74 %
20.08.2022 06:04 19,2 C 17,8 C 15,0 C 98 % 1015,6 hPa 0,2 l/m 0 min 2 min 0 W/m 3,2 km/h (1 Bft) 97,83 %
20.08.2022 06:08 19,2 C 17,8 C 15,0 C 98 % 1015,6 hPa 1,4 l/m 0 min 4 min 0 W/m 3,2 km/h (1 Bft) 97,98 %
20.08.2022 06:10 19,1 C 17,8 C 14,4 C 98 % 1015,5 hPa 1,0 l/m 0 min 2 min 0 W/m 3,2 km/h (1 Bft) 97,87 %
20.08.2022 06:12 19,1 C 17,8 C 15,0 C 98 % 1015,5 hPa 0,8 l/m 0 min 2 min 0 W/m 0,0 km/h (0 Bft) 97,87 %
20.08.2022 06:14 19,1 C 17,8 C 15,0 C 98 % 1015,5 hPa 0,6 l/m 0 min 2 min 0 W/m 0,0 km/h (0 Bft) 97,87 %
20.08.2022 06:16 19,1 C 17,8 C 14,4 C 98 % 1015,5 hPa 0,2 l/m 0 min 2 min 0 W/m 0,0 km/h (0 Bft) 100,00 %
20.08.2022 06:18 19,1 C 17,8 C 14,4 C 98 % 1015,5 hPa 0,2 l/m 0 min 2 min 0 W/m 0,0 km/h (0 Bft) 100,00 %
20.08.2022 06:20 19,1 C 17,8 C 14,4 C 98 % 1015,5 hPa 0,2 l/m 0 min 2 min 0 W/m 0,0 km/h (0 Bft) 97,87 %
20.08.2022 06:22 19,0 C 17,8 C 14,4 C 98 % 1015,5 hPa 0,2 l/m 0 min 2 min 0 W/m 3,2 km/h (1 Bft) 97,87 %
20.08.2022 06:24 19,0 C 17,8 C 14,4 C 98 % 1015,5 hPa 0,0 l/m 0 min 2 min 0 W/m 3,2 km/h (1 Bft) 97,87 %
20.08.2022 06:26 18,9 C 17,8 C 14,4 C 98 % 1015,6 hPa 0,0 l/m 0 min 2 min 0 W/m 0,0 km/h (0 Bft) 100,00 %
20.08.2022 06:28 18,9 C 17,8 C 14,4 C 98 % 1015,7 hPa 0,2 l/m 0 min 2 min 0 W/m 3,2 km/h (1 Bft) 100,00 %
20.08.2022 06:30 18,9 C 17,8 C 14,4 C 98 % 1015,7 hPa 0,0 l/m 0 min 2 min 0 W/m 3,2 km/h (1 Bft) 97,83 %
20.08.2022 06:32 18,9 C 17,8 C 14,4 C 98 % 1015,8 hPa 0,0 l/m 0 min 2 min 0 W/m 0,0 km/h (0 Bft) 100,00 %
20.08.2022 06:34 18,8 C 17,8 C 14,4 C 98 % 1015,8 hPa 0,0 l/m 0 min 0 min 0 W/m 0,0 km/h (0 Bft) 100,00 %
20.08.2022 06:36 18,8 C 17,8 C 14,4 C 98 % 1015,7 hPa 0,0 l/m 0 min 0 min 0 W/m 0,0 km/h (0 Bft) 100,00 %
20.08.2022 06:38 18,8 C 17,8 C 14,4 C 98 % 1015,7 hPa 0,0 l/m 0 min 0 min 0 W/m 0,0 km/h (0 Bft) 100,00 %
20.08.2022 06:40 18,8 C 17,8 C 14,4 C 98 % 1015,7 hPa 0,0 l/m 0 min 0 min 0 W/m 0,0 km/h (0 Bft) 100,00 %
20.08.2022 06:42 18,8 C 17,8 C 14,4 C 98 % 1015,8 hPa 0,0 l/m 0 min 0 min 0 W/m 0,0 km/h (0 Bft) 100,00 %
20.08.2022 06:44 18,8 C 17,8 C 14,4 C 98 % 1015,8 hPa 0,0 l/m 0 min 0 min 0 W/m 0,0 km/h (0 Bft) 100,00 %
20.08.2022 06:46 18,8 C 17,8 C 14,4 C 98 % 1015,8 hPa 0,0 l/m 0 min 0 min 0 W/m 0,0 km/h (0 Bft) 100,00 %
20.08.2022 06:48 18,8 C 17,8 C 14,4 C 98 % 1015,9 hPa 0,0 l/m 0 min 0 min 0 W/m 0,0 km/h (0 Bft) 100,00 %
20.08.2022 06:50 18,8 C 17,8 C 14,4 C 98 % 1015,9 hPa 0,0 l/m 0 min 0 min 0 W/m 0,0 km/h (0 Bft) 97,87 %
20.08.2022 06:52 18,8 C 17,8 C 15,0 C 98 % 1015,9 hPa 0,0 l/m 0 min 0 min 0 W/m 3,2 km/h (1 Bft) 95,83 %
20.08.2022 06:54 18,9 C 17,8 C 15,0 C 98 % 1016,0 hPa 0,0 l/m 0 min 2 min 0 W/m 0,0 km/h (0 Bft) 97,83 %
20.08.2022 06:56 18,9 C 17,8 C 15,0 C 98 % 1016,0 hPa 0,0 l/m 0 min 2 min 0 W/m 0,0 km/h (0 Bft) 97,87 %
20.08.2022 06:58 18,9 C 17,8 C 15,0 C 98 % 1016,0 hPa 0,4 l/m 0 min 2 min 0 W/m 3,2 km/h (1 Bft) 97,87 %
20.08.2022 07:00 18,9 C 17,8 C 15,0 C 98 % 1016,0 hPa 0,0 l/m 0 min 2 min 5 W/m 0,0 km/h (0 Bft) 97,87 %
20.08.2022 07:02 18,9 C 17,8 C 15,0 C 98 % 1016,1 hPa 0,0 l/m 0 min 2 min 6 W/m 3,2 km/h (1 Bft) 95,83 %
20.08.2022 07:04 18,9 C 17,8 C 15,0 C 98 % 1016,2 hPa 0,0 l/m 0 min 2 min 5 W/m 3,2 km/h (1 Bft) 97,30 %
20.08.2022 07:06 18,9 C 17,8 C 15,0 C 98 % 1016,1 hPa 0,0 l/m 0 min 0 min 5 W/m 3,2 km/h (1 Bft) 96,61 %
20.08.2022 07:08 18,9 C 17,8 C 14,4 C 98 % 1016,2 hPa 0,0 l/m 0 min 0 min 1 W/m 3,2 km/h (1 Bft) 94,29 %
20.08.2022 07:10 18,9 C 17,8 C 14,4 C 98 % 1016,1 hPa 0,0 l/m 0 min 0 min 4 W/m 0,0 km/h (0 Bft) 97,87 %
20.08.2022 07:12 18,9 C 17,8 C 14,4 C 98 % 1016,1 hPa 0,0 l/m 0 min 0 min 5 W/m 3,2 km/h (1 Bft) 97,87 %
20.08.2022 07:14 18,9 C 17,8 C 14,4 C 98 % 1016,1 hPa 0,0 l/m 0 min 0 min 5 W/m 3,2 km/h (1 Bft) 95,74 %
20.08.2022 07:16 18,8 C 17,8 C 15,0 C 99 % 1016,1 hPa 0,0 l/m 0 min 0 min 5 W/m 3,2 km/h (1 Bft) 96,23 %
20.08.2022 07:18 18,9 C 17,8 C 15,0 C 99 % 1016,1 hPa 0,0 l/m 0 min 2 min 5 W/m 3,2 km/h (1 Bft) 95,74 %
20.08.2022 07:20 18,8 C 17,8 C 15,0 C 99 % 1016,1 hPa 0,0 l/m 0 min 0 min 5 W/m 3,2 km/h (1 Bft) 97,87 %
20.08.2022 07:22 18,8 C 17,8 C 15,0 C 99 % 1016,1 hPa 0,0 l/m 0 min 0 min 5 W/m 6,4 km/h (2 Bft) 97,87 %
20.08.2022 07:24 18,8 C 17,8 C 14,4 C 99 % 1016,1 hPa 0,0 l/m 0 min 0 min 6 W/m 6,4 km/h (2 Bft) 97,87 %
20.08.2022 07:26 18,8 C 17,8 C 14,4 C 99 % 1016,2 hPa 0,0 l/m 0 min 0 min 7 W/m 6,4 km/h (2 Bft) 95,74 %
20.08.2022 07:28 18,8 C 17,8 C 14,4 C 99 % 1016,2 hPa 0,0 l/m 0 min 0 min 6 W/m 9,7 km/h (2 Bft) 91,30 %
20.08.2022 07:30 18,8 C 17,8 C 14,4 C 99 % 1016,2 hPa 0,0 l/m 0 min 0 min 5 W/m 3,2 km/h (1 Bft) 95,74 %
20.08.2022 07:32 18,8 C 17,8 C 14,4 C 99 % 1016,2 hPa 0,0 l/m 0 min 0 min 5 W/m 3,2 km/h (1 Bft) 95,83 %
20.08.2022 07:34 18,8 C 17,8 C 14,4 C 99 % 1016,3 hPa 0,0 l/m 0 min 2 min 7 W/m 6,4 km/h (2 Bft) 89,36 %
20.08.2022 07:36 18,8 C 17,8 C 15,0 C 99 % 1016,2 hPa 0,2 l/m 0 min 2 min 10 W/m 6,4 km/h (2 Bft) 91,49 %
20.08.2022 07:38 18,8 C 17,8 C 15,0 C 99 % 1016,2 hPa 0,0 l/m 0 min 0 min 10 W/m 6,4 km/h (2 Bft) 95,74 %
20.08.2022 07:40 18,8 C 17,8 C 15,0 C 99 % 1016,3 hPa 0,0 l/m 0 min 2 min 10 W/m 3,2 km/h (1 Bft) 95,74 %
20.08.2022 07:42 18,8 C 17,8 C 15,0 C 99 % 1016,3 hPa 0,0 l/m 0 min 0 min 8 W/m 3,2 km/h (1 Bft) 95,65 %
20.08.2022 07:44 18,8 C 17,8 C 15,0 C 99 % 1016,3 hPa 0,0 l/m 0 min 0 min 9 W/m 3,2 km/h (1 Bft) 95,74 %
20.08.2022 07:46 18,8 C 17,8 C 14,4 C 99 % 1016,3 hPa 0,0 l/m 0 min 0 min 12 W/m 6,4 km/h (2 Bft) 95,74 %
20.08.2022 07:48 18,8 C 17,8 C 15,0 C 99 % 1016,3 hPa 0,0 l/m 0 min 0 min 17 W/m 3,2 km/h (1 Bft) 93,62 %
20.08.2022 07:50 18,8 C 17,8 C 15,0 C 99 % 1016,3 hPa 0,0 l/m 0 min 0 min 19 W/m 6,4 km/h (2 Bft) 95,74 %
20.08.2022 07:52 18,8 C 17,8 C 15,0 C 99 % 1016,3 hPa 0,0 l/m 0 min 0 min 26 W/m 6,4 km/h (2 Bft) 95,65 %
20.08.2022 07:54 18,8 C 17,8 C 15,0 C 99 % 1016,4 hPa 0,0 l/m 0 min 0 min 37 W/m 6,4 km/h (2 Bft) 95,74 %
20.08.2022 07:56 18,8 C 17,8 C 15,0 C 99 % 1016,4 hPa 0,0 l/m 0 min 0 min 41 W/m 12,9 km/h (3 Bft) 95,74 %
20.08.2022 07:58 18,7 C 17,8 C 14,4 C 99 % 1016,4 hPa 0,0 l/m 0 min 0 min 40 W/m 12,9 km/h (3 Bft) 93,75 %
20.08.2022 08:00 18,7 C 17,8 C 14,4 C 99 % 1016,4 hPa 0,0 l/m 0 min 0 min 42 W/m 16,1 km/h (3 Bft) 95,74 %
20.08.2022 08:02 18,7 C 18,3 C 14,4 C 99 % 1016,3 hPa 0,0 l/m 0 min 0 min 50 W/m 12,9 km/h (3 Bft) 93,75 %
20.08.2022 08:04 18,7 C 18,3 C 14,4 C 99 % 1016,3 hPa 0,0 l/m 0 min 0 min 56 W/m 12,9 km/h (3 Bft) 95,65 %
20.08.2022 08:06 18,7 C 18,3 C 14,4 C 99 % 1016,3 hPa 0,0 l/m 0 min 0 min 56 W/m 9,7 km/h (2 Bft) 95,74 %
20.08.2022 08:08 18,7 C 18,3 C 14,4 C 99 % 1016,3 hPa 0,0 l/m 0 min 0 min 57 W/m 12,9 km/h (3 Bft) 97,87 %
20.08.2022 08:10 18,7 C 18,3 C 14,4 C 99 % 1016,3 hPa 0,0 l/m 0 min 0 min 66 W/m 6,4 km/h (2 Bft) 97,87 %
20.08.2022 08:12 18,6 C 18,3 C 14,4 C 99 % 1016,3 hPa 0,0 l/m 0 min 0 min 69 W/m 9,7 km/h (2 Bft) 97,87 %
20.08.2022 08:14 18,7 C 18,3 C 14,4 C 99 % 1016,3 hPa 0,0 l/m 0 min 0 min 83 W/m 6,4 km/h (2 Bft) 95,74 %
20.08.2022 08:16 18,7 C 18,3 C 15,0 C 99 % 1016,4 hPa 0,0 l/m 0 min 0 min 71 W/m 6,4 km/h (2 Bft) 97,83 %
20.08.2022 08:18 18,7 C 18,3 C 15,0 C 99 % 1016,4 hPa 0,0 l/m 0 min 0 min 42 W/m 9,7 km/h (2 Bft) 97,87 %
20.08.2022 08:20 18,7 C 18,3 C 14,4 C 99 % 1016,3 hPa 0,0 l/m 0 min 0 min 36 W/m 9,7 km/h (2 Bft) 100,00 %
20.08.2022 08:22 18,7 C 18,3 C 14,4 C 99 % 1016,4 hPa 0,0 l/m 0 min 0 min 36 W/m 6,4 km/h (2 Bft) 100,00 %
20.08.2022 08:24 18,7 C 18,3 C 14,4 C 99 % 1016,4 hPa 0,0 l/m 0 min 0 min 42 W/m 16,1 km/h (3 Bft) 100,00 %
20.08.2022 08:26 18,6 C 18,3 C 14,4 C 99 % 1016,4 hPa 0,0 l/m 0 min 0 min 68 W/m 12,9 km/h (3 Bft) 100,00 %
20.08.2022 08:28 18,6 C 18,3 C 14,4 C 99 % 1016,3 hPa 0,0 l/m 0 min 0 min 76 W/m 12,9 km/h (3 Bft) 100,00 %
20.08.2022 08:30 18,6 C 18,3 C 14,4 C 99 % 1016,3 hPa 0,0 l/m 0 min 0 min 93 W/m 9,7 km/h (2 Bft) 97,87 %
20.08.2022 08:32 18,6 C 18,3 C 14,4 C 99 % 1016,3 hPa 0,0 l/m 0 min 0 min 98 W/m 12,9 km/h (3 Bft) 97,87 %
20.08.2022 08:34 18,5 C 18,3 C 14,4 C 99 % 1016,4 hPa 0,0 l/m 0 min 0 min 100 W/m 12,9 km/h (3 Bft) 100,00 %
20.08.2022 08:36 18,5 C 18,3 C 14,4 C 99 % 1016,5 hPa 0,0 l/m 0 min 0 min 87 W/m 16,1 km/h (3 Bft) 100,00 %
20.08.2022 08:38 18,5 C 18,3 C 14,4 C 99 % 1016,4 hPa 0,0 l/m 0 min 0 min 79 W/m 6,4 km/h (2 Bft) 100,00 %
20.08.2022 08:40 18,5 C 18,3 C 14,4 C 99 % 1016,4 hPa 0,0 l/m 0 min 0 min 67 W/m 12,9 km/h (3 Bft) 100,00 %
20.08.2022 08:42 18,5 C 18,3 C 14,4 C 99 % 1016,5 hPa 0,0 l/m 0 min 0 min 74 W/m 6,4 km/h (2 Bft) 100,00 %
20.08.2022 08:44 18,5 C 18,3 C 14,4 C 99 % 1016,5 hPa 0,0 l/m 0 min 0 min 101 W/m 6,4 km/h (2 Bft) 100,00 %
20.08.2022 08:46 18,5 C 18,3 C 14,4 C 99 % 1016,5 hPa 0,0 l/m 0 min 0 min 111 W/m 12,9 km/h (3 Bft) 100,00 %
20.08.2022 08:48 18,5 C 18,3 C 14,4 C 99 % 1016,4 hPa 0,0 l/m 0 min 0 min 120 W/m 12,9 km/h (3 Bft) 100,00 %
20.08.2022 08:50 18,6 C 18,3 C 14,4 C 99 % 1016,5 hPa 0,0 l/m 0 min 0 min 151 W/m 12,9 km/h (3 Bft) 100,00 %
20.08.2022 08:52 18,6 C 18,3 C 15,0 C 99 % 1016,5 hPa 0,0 l/m 0 min 0 min 121 W/m 6,4 km/h (2 Bft) 100,00 %
20.08.2022 08:54 18,6 C 18,3 C 14,4 C 99 % 1016,5 hPa 0,0 l/m 0 min 0 min 110 W/m 9,7 km/h (2 Bft) 100,00 %
20.08.2022 08:56 18,6 C 18,3 C 14,4 C 99 % 1016,5 hPa 0,0 l/m 0 min 0 min 75 W/m 6,4 km/h (2 Bft) 98,28 %
20.08.2022 08:58 18,6 C 18,3 C 14,4 C 99 % 1016,5 hPa 0,0 l/m 0 min 0 min 73 W/m 6,4 km/h (2 Bft) 100,00 %
20.08.2022 09:00 18,7 C 18,3 C 15,0 C 99 % 1016,5 hPa 0,0 l/m 0 min 0 min 110 W/m 12,9 km/h (3 Bft) 100,00 %
20.08.2022 09:02 18,7 C 18,3 C 14,4 C 99 % 1016,6 hPa 0,0 l/m 0 min 0 min 144 W/m 6,4 km/h (2 Bft) 100,00 %
20.08.2022 09:04 18,7 C 18,9 C 14,4 C 99 % 1016,6 hPa 0,0 l/m 0 min 0 min 168 W/m 6,4 km/h (2 Bft) 100,00 %
20.08.2022 09:06 18,7 C 18,9 C 14,4 C 99 % 1016,6 hPa 0,0 l/m 0 min 0 min 154 W/m 12,9 km/h (3 Bft) 100,00 %
20.08.2022 09:08 18,7 C 18,3 C 14,4 C 99 % 1016,6 hPa 0,0 l/m 0 min 0 min 110 W/m 6,4 km/h (2 Bft) 100,00 %
20.08.2022 09:10 18,7 C 18,3 C 14,4 C 99 % 1016,6 hPa 0,0 l/m 0 min 0 min 81 W/m 3,2 km/h (1 Bft) 100,00 %
20.08.2022 09:12 18,7 C 18,3 C 14,4 C 99 % 1016,6 hPa 0,0 l/m 0 min 0 min 62 W/m 6,4 km/h (2 Bft) 100,00 %
20.08.2022 09:14 18,7 C 18,3 C 14,4 C 99 % 1016,6 hPa 0,0 l/m 0 min 0 min 58 W/m 6,4 km/h (2 Bft) 100,00 %
20.08.2022 09:16 18,7 C 18,3 C 14,4 C 99 % 1016,7 hPa 0,0 l/m 0 min 0 min 64 W/m 3,2 km/h (1 Bft) 100,00 %
20.08.2022 09:18 18,7 C 18,3 C 14,4 C 98 % 1016,7 hPa 0,0 l/m 0 min 0 min 69 W/m 3,2 km/h (1 Bft) 100,00 %
20.08.2022 09:20 18,7 C 18,3 C 14,4 C 98 % 1016,7 hPa 0,0 l/m 0 min 0 min 77 W/m 6,4 km/h (2 Bft) 97,87 %
20.08.2022 09:26 18,6 C 18,3 C 14,4 C 98 % 1016,7 hPa 0,0 l/m 0 min 0 min 63 W/m 3,2 km/h (1 Bft) 91,67 %
20.08.2022 09:28 18,6 C 18,3 C 14,4 C 98 % 1016,8 hPa 0,0 l/m 0 min 0 min 70 W/m 3,2 km/h (1 Bft) 100,00 %
20.08.2022 09:30 18,6 C 18,3 C 14,4 C 98 % 1016,8 hPa 0,0 l/m 0 min 0 min 64 W/m 16,1 km/h (3 Bft) 95,74 %
20.08.2022 09:32 18,6 C 18,3 C 14,4 C 98 % 1016,8 hPa 0,0 l/m 0 min 0 min 76 W/m 6,4 km/h (2 Bft) 97,87 %
20.08.2022 09:34 18,6 C 18,3 C 14,4 C 98 % 1016,9 hPa 0,0 l/m 0 min 0 min 91 W/m 9,7 km/h (2 Bft) 97,87 %
20.08.2022 09:36 18,5 C 18,3 C 14,4 C 98 % 1016,9 hPa 0,0 l/m 0 min 0 min 90 W/m 9,7 km/h (2 Bft) 83,33 %
20.08.2022 09:38 18,4 C 18,3 C 13,9 C 98 % 1016,9 hPa 0,0 l/m 0 min 0 min 89 W/m 9,7 km/h (2 Bft) 97,87 %
20.08.2022 09:40 18,4 C 17,8 C 13,9 C 98 % 1016,9 hPa 0,0 l/m 0 min 0 min 87 W/m 9,7 km/h (2 Bft) 95,74 %
20.08.2022 09:42 18,3 C 17,8 C 13,9 C 98 % 1016,9 hPa 0,0 l/m 0 min 0 min 88 W/m 12,9 km/h (3 Bft) 93,62 %
20.08.2022 09:44 18,3 C 17,8 C 13,9 C 98 % 1016,9 hPa 0,0 l/m 0 min 0 min 91 W/m 6,4 km/h (2 Bft) 95,74 %
20.08.2022 09:46 18,3 C 17,8 C 13,9 C 98 % 1017,0 hPa 0,0 l/m 0 min 0 min 65 W/m 6,4 km/h (2 Bft) 93,62 %
20.08.2022 09:48 18,3 C 17,8 C 13,9 C 98 % 1017,0 hPa 0,0 l/m 0 min 0 min 41 W/m 12,9 km/h (3 Bft) 95,65 %
20.08.2022 09:50 18,3 C 17,8 C 13,9 C 97 % 1017,0 hPa 0,0 l/m 0 min 0 min 33 W/m 9,7 km/h (2 Bft) 91,49 %
20.08.2022 09:52 18,3 C 17,8 C 13,9 C 97 % 1017,0 hPa 0,0 l/m 0 min 0 min 40 W/m 12,9 km/h (3 Bft) 95,74 %
20.08.2022 09:54 18,3 C 17,8 C 13,9 C 97 % 1017,0 hPa 0,0 l/m 0 min 0 min 49 W/m 9,7 km/h (2 Bft) 95,74 %
20.08.2022 09:56 18,3 C 17,8 C 13,9 C 97 % 1017,1 hPa 0,0 l/m 0 min 0 min 68 W/m 6,4 km/h (2 Bft) 91,49 %
20.08.2022 09:58 18,3 C 17,8 C 13,9 C 97 % 1017,1 hPa 0,0 l/m 0 min 0 min 86 W/m 12,9 km/h (3 Bft) 95,74 %
20.08.2022 10:00 18,2 C 17,8 C 13,9 C 97 % 1017,1 hPa 0,0 l/m 0 min 0 min 98 W/m 12,9 km/h (3 Bft) 95,65 %
20.08.2022 10:02 18,2 C 17,8 C 13,9 C 97 % 1017,1 hPa 0,0 l/m 0 min 0 min 110 W/m 6,4 km/h (2 Bft) 95,74 %
20.08.2022 10:04 18,2 C 17,8 C 13,9 C 97 % 1017,1 hPa 0,0 l/m 0 min 0 min 106 W/m 6,4 km/h (2 Bft) 95,83 %
20.08.2022 10:06 18,2 C 17,8 C 13,9 C 97 % 1017,1 hPa 0,0 l/m 0 min 0 min 94 W/m 9,7 km/h (2 Bft) 95,74 %
20.08.2022 10:08 18,3 C 17,8 C 13,9 C 97 % 1017,1 hPa 0,0 l/m 0 min 0 min 93 W/m 6,4 km/h (2 Bft) 97,87 %
20.08.2022 10:10 18,3 C 17,8 C 13,9 C 97 % 1017,2 hPa 0,0 l/m 0 min 0 min 100 W/m 12,9 km/h (3 Bft) 97,87 %
20.08.2022 10:12 18,3 C 17,8 C 13,9 C 97 % 1017,2 hPa 0,0 l/m 0 min 0 min 100 W/m 6,4 km/h (2 Bft) 95,65 %
20.08.2022 10:14 18,3 C 17,8 C 13,9 C 97 % 1017,1 hPa 0,0 l/m 0 min 0 min 100 W/m 9,7 km/h (2 Bft) 95,74 %
20.08.2022 10:16 18,3 C 18,3 C 13,9 C 97 % 1017,2 hPa 0,0 l/m 0 min 0 min 107 W/m 6,4 km/h (2 Bft) 97,87 %
20.08.2022 10:20 18,4 C 18,3 C 13,9 C 97 % 1017,3 hPa 0,0 l/m 0 min 0 min 94 W/m 3,2 km/h (1 Bft) 100,00 %
20.08.2022 10:22 18,4 C 18,3 C 13,9 C 97 % 1017,3 hPa 0,0 l/m 0 min 0 min 96 W/m 6,4 km/h (2 Bft) 97,92 %
20.08.2022 10:24 18,4 C 18,3 C 13,9 C 97 % 1017,2 hPa 0,0 l/m 0 min 0 min 111 W/m 9,7 km/h (2 Bft) 97,83 %
20.08.2022 10:26 18,4 C 18,3 C 14,4 C 97 % 1017,3 hPa 0,0 l/m 0 min 0 min 114 W/m 9,7 km/h (2 Bft) 95,74 %
20.08.2022 10:28 18,4 C 18,3 C 13,9 C 97 % 1017,2 hPa 0,0 l/m 0 min 0 min 107 W/m 9,7 km/h (2 Bft) 97,87 %
20.08.2022 10:30 18,4 C 18,3 C 13,9 C 96 % 1017,2 hPa 0,0 l/m 0 min 0 min 106 W/m 12,9 km/h (3 Bft) 97,87 %
20.08.2022 10:32 18,4 C 18,3 C 13,9 C 96 % 1017,2 hPa 0,0 l/m 0 min 0 min 111 W/m 6,4 km/h (2 Bft) 97,87 %
20.08.2022 10:34 18,4 C 18,3 C 13,9 C 96 % 1017,2 hPa 0,0 l/m 0 min 0 min 107 W/m 6,4 km/h (2 Bft) 97,87 %
20.08.2022 10:36 18,4 C 18,3 C 13,9 C 96 % 1017,3 hPa 0,0 l/m 0 min 0 min 103 W/m 3,2 km/h (1 Bft) 98,28 %
20.08.2022 10:38 18,4 C 18,3 C 13,9 C 96 % 1017,2 hPa 0,0 l/m 0 min 0 min 88 W/m 9,7 km/h (2 Bft) 97,14 %
20.08.2022 10:40 18,4 C 18,3 C 13,9 C 96 % 1017,3 hPa 0,0 l/m 0 min 0 min 83 W/m 6,4 km/h (2 Bft) 97,87 %
20.08.2022 10:42 18,4 C 17,8 C 13,9 C 96 % 1017,3 hPa 0,0 l/m 0 min 0 min 86 W/m 12,9 km/h (3 Bft) 97,87 %
20.08.2022 10:44 18,4 C 17,8 C 13,9 C 96 % 1017,4 hPa 0,0 l/m 0 min 0 min 92 W/m 12,9 km/h (3 Bft) 97,87 %
20.08.2022 10:46 18,4 C 17,8 C 13,9 C 96 % 1017,4 hPa 0,0 l/m 0 min 0 min 101 W/m 12,9 km/h (3 Bft) 97,87 %
20.08.2022 10:48 18,4 C 17,8 C 13,9 C 96 % 1017,4 hPa 0,0 l/m 0 min 0 min 110 W/m 6,4 km/h (2 Bft) 97,83 %
20.08.2022 10:50 18,4 C 18,3 C 13,9 C 96 % 1017,4 hPa 0,0 l/m 0 min 0 min 108 W/m 6,4 km/h (2 Bft) 97,87 %
20.08.2022 10:52 18,4 C 18,3 C 13,9 C 96 % 1017,4 hPa 0,0 l/m 0 min 0 min 125 W/m 3,2 km/h (1 Bft) 97,87 %
20.08.2022 10:54 18,5 C 18,3 C 13,9 C 96 % 1017,4 hPa 0,0 l/m 0 min 0 min 106 W/m 9,7 km/h (2 Bft) 97,87 %
20.08.2022 10:56 18,5 C 18,3 C 13,9 C 96 % 1017,5 hPa 0,0 l/m 0 min 0 min 97 W/m 6,4 km/h (2 Bft) 95,74 %
20.08.2022 10:58 18,5 C 18,3 C 13,9 C 96 % 1017,4 hPa 0,0 l/m 0 min 0 min 94 W/m 3,2 km/h (1 Bft) 97,83 %
20.08.2022 11:00 18,6 C 18,3 C 13,9 C 96 % 1017,5 hPa 0,0 l/m 0 min 0 min 115 W/m 6,4 km/h (2 Bft) 97,87 %
20.08.2022 11:02 18,6 C 18,3 C 13,9 C 96 % 1017,5 hPa 0,0 l/m 0 min 0 min 132 W/m 6,4 km/h (2 Bft) 97,87 %
20.08.2022 11:05 18,6 C 18,3 C 14,4 C 96 % 1017,5 hPa 0,0 l/m 0 min 0 min 176 W/m 12,9 km/h (3 Bft) 100,00 %
20.08.2022 11:08 18,6 C 18,3 C 14,4 C 96 % 1017,6 hPa 0,0 l/m 0 min 0 min 205 W/m 6,4 km/h (2 Bft) 100,00 %
20.08.2022 11:13 18,6 C 18,3 C 13,9 C 96 % 1017,6 hPa 0,0 l/m 0 min 0 min 215 W/m 16,1 km/h (3 Bft) 100,00 %
20.08.2022 11:14 18,6 C 18,3 C 13,9 C 96 % 1017,6 hPa 0,0 l/m 0 min 0 min 195 W/m 12,9 km/h (3 Bft) 100,00 %
20.08.2022 11:16 18,6 C 18,9 C 14,4 C 96 % 1017,6 hPa 0,0 l/m 0 min 0 min 191 W/m 12,9 km/h (3 Bft) 100,00 %
20.08.2022 11:18 18,6 C 18,9 C 14,4 C 96 % 1017,6 hPa 0,0 l/m 0 min 0 min 188 W/m 12,9 km/h (3 Bft) 100,00 %
20.08.2022 11:20 18,6 C 18,9 C 14,4 C 96 % 1017,6 hPa 0,0 l/m 0 min 0 min 180 W/m 12,9 km/h (3 Bft) 97,87 %
20.08.2022 11:22 18,6 C 18,9 C 14,4 C 96 % 1017,5 hPa 0,0 l/m 0 min 0 min 147 W/m 6,4 km/h (2 Bft) 100,00 %
20.08.2022 11:25 18,6 C 18,3 C 13,9 C 95 % 1017,6 hPa 0,0 l/m 0 min 0 min 151 W/m 12,9 km/h (3 Bft) 100,00 %
20.08.2022 11:31 18,6 C 18,3 C 13,9 C 95 % 1017,6 hPa 0,0 l/m 0 min 0 min 171 W/m 19,3 km/h (3 Bft) 100,00 %
20.08.2022 11:32 18,6 C 18,3 C 13,9 C 95 % 1017,6 hPa 0,0 l/m 0 min 0 min 161 W/m 6,4 km/h (2 Bft) 95,83 %
20.08.2022 11:34 18,6 C 18,3 C 13,9 C 95 % 1017,6 hPa 0,0 l/m 0 min 0 min 170 W/m 12,9 km/h (3 Bft) 97,83 %
20.08.2022 11:36 18,6 C 18,3 C 13,9 C 95 % 1017,7 hPa 0,0 l/m 0 min 0 min 188 W/m 6,4 km/h (2 Bft) 97,87 %
20.08.2022 11:38 18,6 C 18,9 C 13,9 C 95 % 1017,7 hPa 0,0 l/m 0 min 0 min 192 W/m 12,9 km/h (3 Bft) 95,74 %
20.08.2022 11:40 18,7 C 18,9 C 14,4 C 95 % 1017,7 hPa 0,0 l/m 0 min 0 min 163 W/m 9,7 km/h (2 Bft) 97,87 %
20.08.2022 11:42 18,7 C 18,3 C 13,9 C 95 % 1017,7 hPa 0,0 l/m 0 min 0 min 174 W/m 16,1 km/h (3 Bft) 97,87 %
20.08.2022 11:44 18,7 C 18,3 C 13,9 C 95 % 1017,7 hPa 0,0 l/m 0 min 0 min 162 W/m 6,4 km/h (2 Bft) 97,87 %
20.08.2022 11:46 18,7 C 18,3 C 13,9 C 95 % 1017,7 hPa 0,0 l/m 0 min 0 min 143 W/m 9,7 km/h (2 Bft) 97,83 %
20.08.2022 11:48 18,7 C 18,3 C 13,9 C 95 % 1017,8 hPa 0,0 l/m 0 min 0 min 146 W/m 12,9 km/h (3 Bft) 97,87 %
20.08.2022 11:50 18,7 C 18,3 C 13,9 C 94 % 1017,8 hPa 0,0 l/m 0 min 0 min 147 W/m 9,7 km/h (2 Bft) 95,74 %
20.08.2022 11:52 18,6 C 18,3 C 13,9 C 94 % 1017,8 hPa 0,0 l/m 0 min 0 min 138 W/m 12,9 km/h (3 Bft) 97,87 %
20.08.2022 11:54 18,6 C 18,3 C 13,9 C 94 % 1017,8 hPa 0,0 l/m 0 min 0 min 161 W/m 9,7 km/h (2 Bft) 97,87 %
20.08.2022 11:56 18,7 C 18,3 C 13,9 C 94 % 1017,8 hPa 0,0 l/m 0 min 0 min 178 W/m 12,9 km/h (3 Bft) 97,87 %
20.08.2022 11:58 18,7 C 18,9 C 13,9 C 94 % 1017,8 hPa 0,0 l/m 0 min 0 min 218 W/m 12,9 km/h (3 Bft) 97,83 %
20.08.2022 12:00 18,7 C 18,9 C 13,9 C 94 % 1017,8 hPa 0,0 l/m 0 min 0 min 227 W/m 6,4 km/h (2 Bft) 97,87 %
20.08.2022 12:02 18,7 C 18,9 C 13,9 C 94 % 1017,7 hPa 0,0 l/m 0 min 0 min 242 W/m 16,1 km/h (3 Bft) 100,00 %
20.08.2022 12:04 18,7 C 18,9 C 13,9 C 94 % 1017,7 hPa 0,0 l/m 0 min 0 min 246 W/m 6,4 km/h (2 Bft) 100,00 %
20.08.2022 12:10 18,9 C 19,4 C 14,4 C 94 % 1017,7 hPa 0,0 l/m 0 min 0 min 228 W/m 9,7 km/h (2 Bft) 100,00 %
20.08.2022 12:12 19,0 C 19,4 C 14,4 C 94 % 1017,7 hPa 0,0 l/m 0 min 0 min 197 W/m 3,2 km/h (1 Bft) 100,00 %
20.08.2022 12:14 19,1 C 19,4 C 14,4 C 94 % 1017,7 hPa 0,0 l/m 0 min 0 min 224 W/m 12,9 km/h (3 Bft) 100,00 %
20.08.2022 12:16 19,1 C 19,4 C 14,4 C 94 % 1017,8 hPa 0,0 l/m 0 min 0 min 233 W/m 12,9 km/h (3 Bft) 97,87 %
20.08.2022 12:18 19,1 C 18,9 C 14,4 C 94 % 1017,8 hPa 0,0 l/m 0 min 0 min 235 W/m 12,9 km/h (3 Bft) 100,00 %
20.08.2022 12:20 19,1 C 18,9 C 14,4 C 93 % 1017,8 hPa 0,0 l/m 0 min 0 min 223 W/m 3,2 km/h (1 Bft) 100,00 %
20.08.2022 12:22 19,2 C 19,4 C 14,4 C 93 % 1017,8 hPa 0,0 l/m 0 min 0 min 198 W/m 12,9 km/h (3 Bft) 100,00 %
20.08.2022 12:24 19,2 C 19,4 C 14,4 C 93 % 1017,9 hPa 0,0 l/m 0 min 0 min 190 W/m 6,4 km/h (2 Bft) 95,74 %
20.08.2022 12:26 19,2 C 19,4 C 14,4 C 93 % 1017,9 hPa 0,0 l/m 0 min 0 min 182 W/m 12,9 km/h (3 Bft) 97,87 %
20.08.2022 12:28 19,2 C 18,9 C 14,4 C 93 % 1017,9 hPa 0,0 l/m 0 min 0 min 173 W/m 6,4 km/h (2 Bft) 97,87 %
20.08.2022 12:30 19,3 C 18,9 C 14,4 C 93 % 1017,8 hPa 0,0 l/m 0 min 0 min 183 W/m 6,4 km/h (2 Bft) 95,74 %
20.08.2022 12:32 19,3 C 19,4 C 14,4 C 93 % 1017,8 hPa 0,0 l/m 0 min 0 min 194 W/m 9,7 km/h (2 Bft) 97,87 %
20.08.2022 12:34 19,3 C 19,4 C 14,4 C 93 % 1017,8 hPa 0,0 l/m 0 min 0 min 210 W/m 9,7 km/h (2 Bft) 97,83 %
20.08.2022 12:36 19,4 C 19,4 C 14,4 C 93 % 1017,8 hPa 0,0 l/m 0 min 0 min 216 W/m 6,4 km/h (2 Bft) 97,87 %
20.08.2022 12:38 19,4 C 19,4 C 15,0 C 93 % 1017,8 hPa 0,0 l/m 0 min 0 min 265 W/m 9,7 km/h (2 Bft) 97,87 %
20.08.2022 12:40 19,4 C 20,0 C 15,6 C 93 % 1017,8 hPa 0,0 l/m 0 min 0 min 275 W/m 12,9 km/h (3 Bft) 93,62 %
20.08.2022 12:42 19,4 C 20,0 C 16,1 C 92 % 1017,8 hPa 0,0 l/m 0 min 0 min 250 W/m 12,9 km/h (3 Bft) 95,74 %
20.08.2022 12:44 19,4 C 20,0 C 16,1 C 92 % 1017,8 hPa 0,0 l/m 0 min 0 min 274 W/m 12,9 km/h (3 Bft) 97,87 %
20.08.2022 12:46 19,6 C 21,1 C 16,7 C 92 % 1017,8 hPa 0,0 l/m 0 min 0 min 278 W/m 3,2 km/h (1 Bft) 97,83 %
20.08.2022 12:48 19,7 C 21,7 C 16,7 C 92 % 1017,8 hPa 0,0 l/m 0 min 0 min 278 W/m 12,9 km/h (3 Bft) 95,74 %
20.08.2022 12:50 19,8 C 21,7 C 17,2 C 92 % 1017,8 hPa 0,0 l/m 0 min 0 min 278 W/m 16,1 km/h (3 Bft) 97,87 %
20.08.2022 12:52 19,9 C 21,7 C 17,2 C 92 % 1017,8 hPa 0,0 l/m 0 min 0 min 362 W/m 9,7 km/h (2 Bft) 97,87 %
20.08.2022 12:54 20,1 C 22,2 C 17,2 C 92 % 1017,8 hPa 0,0 l/m 2 min 0 min 811 W/m 12,9 km/h (3 Bft) 97,87 %
20.08.2022 12:56 20,3 C 22,2 C 17,8 C 92 % 1017,8 hPa 0,0 l/m 2 min 0 min 879 W/m 6,4 km/h (2 Bft) 97,87 %
20.08.2022 12:58 20,4 C 22,2 C 17,8 C 91 % 1017,8 hPa 0,0 l/m 2 min 0 min 879 W/m 9,7 km/h (2 Bft) 95,65 %
20.08.2022 13:00 20,6 C 22,2 C 17,8 C 91 % 1017,8 hPa 0,0 l/m 2 min 0 min 838 W/m 16,1 km/h (3 Bft) 97,87 %
20.08.2022 13:02 20,7 C 21,7 C 17,8 C 90 % 1017,9 hPa 0,0 l/m 2 min 0 min 841 W/m 9,7 km/h (2 Bft) 95,74 %
20.08.2022 13:04 20,7 C 21,7 C 17,8 C 89 % 1017,8 hPa 0,0 l/m 2 min 0 min 911 W/m 12,9 km/h (3 Bft) 100,00 %
20.08.2022 13:06 20,8 C 21,7 C 17,8 C 89 % 1017,8 hPa 0,0 l/m 2 min 0 min 916 W/m 12,9 km/h (3 Bft) 100,00 %
20.08.2022 13:08 20,8 C 21,7 C 17,8 C 89 % 1017,8 hPa 0,0 l/m 0 min 0 min 338 W/m 12,9 km/h (3 Bft) 97,87 %
20.08.2022 13:10 20,8 C 21,7 C 17,8 C 88 % 1017,8 hPa 0,0 l/m 0 min 0 min 311 W/m 19,3 km/h (3 Bft) 100,00 %
20.08.2022 13:12 20,8 C 21,7 C 17,8 C 88 % 1017,8 hPa 0,0 l/m 0 min 0 min 311 W/m 16,1 km/h (3 Bft) 100,00 %
20.08.2022 13:14 20,9 C 21,7 C 17,8 C 88 % 1017,8 hPa 0,0 l/m 0 min 0 min 342 W/m 6,4 km/h (2 Bft) 100,00 %
20.08.2022 13:16 20,9 C 21,7 C 17,8 C 87 % 1017,7 hPa 0,0 l/m 0 min 0 min 346 W/m 16,1 km/h (3 Bft) 100,00 %
20.08.2022 13:18 21,1 C 21,7 C 17,8 C 87 % 1017,8 hPa 0,0 l/m 2 min 0 min 758 W/m 12,9 km/h (3 Bft) 97,87 %
20.08.2022 13:20 21,1 C 22,2 C 18,3 C 87 % 1017,8 hPa 0,0 l/m 2 min 0 min 836 W/m 16,1 km/h (3 Bft) 100,00 %
20.08.2022 13:22 21,2 C 22,2 C 17,8 C 87 % 1017,8 hPa 0,0 l/m 2 min 0 min 791 W/m 16,1 km/h (3 Bft) 97,83 %
20.08.2022 13:24 21,3 C 22,2 C 18,3 C 86 % 1017,8 hPa 0,0 l/m 2 min 0 min 831 W/m 6,4 km/h (2 Bft) 100,00 %
20.08.2022 13:26 21,4 C 22,8 C 18,3 C 86 % 1017,8 hPa 0,0 l/m 2 min 0 min 902 W/m 12,9 km/h (3 Bft) 97,87 %
20.08.2022 13:28 21,7 C 22,8 C 18,3 C 86 % 1017,8 hPa 0,0 l/m 2 min 0 min 871 W/m 12,9 km/h (3 Bft) 97,87 %
20.08.2022 13:30 21,8 C 22,8 C 18,3 C 85 % 1017,8 hPa 0,0 l/m 2 min 0 min 863 W/m 12,9 km/h (3 Bft) 100,00 %
20.08.2022 13:32 21,8 C 22,8 C 18,3 C 85 % 1017,8 hPa 0,0 l/m 2 min 0 min 854 W/m 6,4 km/h (2 Bft) 95,74 %
20.08.2022 13:34 21,8 C 22,8 C 18,3 C 84 % 1017,8 hPa 0,0 l/m 2 min 0 min 850 W/m 12,9 km/h (3 Bft) 95,65 %
20.08.2022 13:36 21,9 C 22,8 C 18,3 C 83 % 1017,8 hPa 0,0 l/m 2 min 0 min 803 W/m 6,4 km/h (2 Bft) 97,87 %
20.08.2022 13:38 22,0 C 23,3 C 18,3 C 84 % 1017,8 hPa 0,0 l/m 2 min 0 min 844 W/m 6,4 km/h (2 Bft) 93,62 %
20.08.2022 13:40 22,0 C 22,8 C 18,3 C 83 % 1017,8 hPa 0,0 l/m 2 min 0 min 444 W/m 16,1 km/h (3 Bft) 95,74 %
20.08.2022 13:42 21,9 C 22,2 C 18,3 C 82 % 1017,8 hPa 0,0 l/m 0 min 0 min 225 W/m 6,4 km/h (2 Bft) 95,74 %
20.08.2022 13:44 21,9 C 21,7 C 18,3 C 83 % 1017,8 hPa 0,0 l/m 0 min 0 min 206 W/m 6,4 km/h (2 Bft) 93,62 %
20.08.2022 13:46 21,9 C 22,2 C 17,8 C 82 % 1017,8 hPa 0,0 l/m 0 min 0 min 235 W/m 12,9 km/h (3 Bft) 95,65 %
20.08.2022 13:48 21,8 C 22,2 C 17,8 C 82 % 1017,8 hPa 0,0 l/m 0 min 0 min 261 W/m 6,4 km/h (2 Bft) 93,62 %
20.08.2022 13:50 21,8 C 22,8 C 18,3 C 82 % 1017,7 hPa 0,0 l/m 0 min 0 min 323 W/m 12,9 km/h (3 Bft) 95,74 %
20.08.2022 13:52 21,8 C 22,2 C 18,3 C 83 % 1017,7 hPa 0,0 l/m 0 min 0 min 247 W/m 12,9 km/h (3 Bft) 95,74 %
20.08.2022 13:54 21,8 C 23,9 C 17,8 C 82 % 1017,8 hPa 0,0 l/m 0 min 0 min 183 W/m 6,4 km/h (2 Bft) 95,74 %
20.08.2022 13:56 21,9 C 26,1 C 18,3 C 82 % 1017,8 hPa 0,0 l/m 2 min 0 min 868 W/m 16,1 km/h (3 Bft) 95,74 %
20.08.2022 13:58 21,9 C 25,0 C 18,3 C 82 % 1017,8 hPa 0,0 l/m 2 min 0 min 739 W/m 12,9 km/h (3 Bft) 95,65 %
20.08.2022 14:00 21,9 C 25,0 C 18,3 C 81 % 1017,7 hPa 0,0 l/m 0 min 0 min 226 W/m 12,9 km/h (3 Bft) 95,74 %
20.08.2022 14:02 22,1 C 25,0 C 18,3 C 80 % 1017,8 hPa 0,0 l/m 2 min 0 min 725 W/m 12,9 km/h (3 Bft) 95,74 %
20.08.2022 14:04 22,1 C 24,4 C 18,3 C 79 % 1017,7 hPa 0,0 l/m 0 min 0 min 183 W/m 12,9 km/h (3 Bft) 95,74 %
20.08.2022 14:06 22,1 C 26,1 C 18,3 C 79 % 1017,7 hPa 0,0 l/m 2 min 0 min 779 W/m 12,9 km/h (3 Bft) 95,74 %
20.08.2022 14:08 22,2 C 27,2 C 18,3 C 79 % 1017,8 hPa 0,0 l/m 2 min 0 min 846 W/m 12,9 km/h (3 Bft) 93,62 %
20.08.2022 14:10 22,4 C 27,2 C 18,3 C 79 % 1017,8 hPa 0,0 l/m 2 min 0 min 872 W/m 12,9 km/h (3 Bft) 97,83 %
20.08.2022 14:12 22,5 C 27,8 C 18,3 C 79 % 1017,7 hPa 0,0 l/m 2 min 0 min 891 W/m 6,4 km/h (2 Bft) 97,87 %
20.08.2022 14:14 22,6 C 27,8 C 18,3 C 78 % 1017,7 hPa 0,0 l/m 2 min 0 min 896 W/m 9,7 km/h (2 Bft) 97,87 %
20.08.2022 14:16 22,7 C 28,3 C 18,9 C 77 % 1017,7 hPa 0,0 l/m 2 min 0 min 918 W/m 19,3 km/h (3 Bft) 97,87 %
20.08.2022 14:18 22,7 C 28,9 C 18,9 C 78 % 1017,7 hPa 0,0 l/m 2 min 0 min 924 W/m 12,9 km/h (3 Bft) 97,87 %
20.08.2022 14:20 22,9 C 28,9 C 18,9 C 77 % 1017,7 hPa 0,0 l/m 2 min 0 min 864 W/m 16,1 km/h (3 Bft) 97,87 %
20.08.2022 14:22 23,0 C 28,9 C 18,9 C 76 % 1017,7 hPa 0,0 l/m 2 min 0 min 798 W/m 9,7 km/h (2 Bft) 97,83 %
20.08.2022 14:24 23,1 C 29,4 C 18,9 C 76 % 1017,7 hPa 0,0 l/m 2 min 0 min 864 W/m 16,1 km/h (3 Bft) 97,87 %
20.08.2022 14:26 23,2 C 30,6 C 18,9 C 77 % 1017,7 hPa 0,0 l/m 2 min 0 min 878 W/m 12,9 km/h (3 Bft) 97,87 %
20.08.2022 14:28 23,4 C 30,0 C 19,4 C 76 % 1017,8 hPa 0,0 l/m 2 min 0 min 870 W/m 16,1 km/h (3 Bft) 97,87 %
20.08.2022 14:30 23,6 C 30,0 C 19,4 C 75 % 1017,7 hPa 0,0 l/m 2 min 0 min 890 W/m 12,9 km/h (3 Bft) 97,87 %
20.08.2022 14:32 23,7 C 29,4 C 19,4 C 74 % 1017,7 hPa 0,0 l/m 2 min 0 min 874 W/m 16,1 km/h (3 Bft) 100,00 %
20.08.2022 14:34 23,7 C 28,9 C 19,4 C 72 % 1017,7 hPa 0,0 l/m 2 min 0 min 845 W/m 19,3 km/h (3 Bft) 97,87 %
20.08.2022 14:36 23,7 C 27,8 C 19,4 C 73 % 1017,7 hPa 0,0 l/m 2 min 0 min 502 W/m 12,9 km/h (3 Bft) 100,00 %
20.08.2022 14:38 23,6 C 27,2 C 18,9 C 72 % 1017,7 hPa 0,0 l/m 0 min 0 min 186 W/m 12,9 km/h (3 Bft) 100,00 %
20.08.2022 14:40 23,6 C 27,8 C 18,9 C 72 % 1017,7 hPa 0,0 l/m 2 min 0 min 688 W/m 16,1 km/h (3 Bft) 100,00 %
20.08.2022 14:42 23,5 C 26,1 C 18,9 C 72 % 1017,7 hPa 0,0 l/m 2 min 0 min 804 W/m 12,9 km/h (3 Bft) 100,00 %
20.08.2022 14:44 23,4 C 25,6 C 18,9 C 72 % 1017,6 hPa 0,0 l/m 0 min 0 min 213 W/m 6,4 km/h (2 Bft) 100,00 %
20.08.2022 14:46 23,4 C 25,0 C 18,9 C 72 % 1017,6 hPa 0,0 l/m 0 min 0 min 253 W/m 12,9 km/h (3 Bft) 100,00 %
20.08.2022 14:48 23,3 C 27,2 C 18,9 C 73 % 1017,6 hPa 0,0 l/m 2 min 0 min 525 W/m 6,4 km/h (2 Bft) 100,00 %
20.08.2022 14:50 23,4 C 28,3 C 18,9 C 73 % 1017,5 hPa 0,0 l/m 2 min 0 min 814 W/m 9,7 km/h (2 Bft) 100,00 %
20.08.2022 14:52 23,5 C 28,3 C 18,9 C 72 % 1017,6 hPa 0,0 l/m 2 min 0 min 793 W/m 16,1 km/h (3 Bft) 97,87 %
20.08.2022 14:54 23,6 C 28,9 C 18,9 C 72 % 1017,6 hPa 0,0 l/m 2 min 0 min 782 W/m 16,1 km/h (3 Bft) 97,87 %
20.08.2022 14:56 23,7 C 29,4 C 19,4 C 72 % 1017,5 hPa 0,0 l/m 2 min 0 min 782 W/m 6,4 km/h (2 Bft) 97,83 %
20.08.2022 14:58 23,9 C 30,0 C 19,4 C 72 % 1017,6 hPa 0,0 l/m 2 min 0 min 800 W/m 16,1 km/h (3 Bft) 95,74 %
20.08.2022 15:00 24,1 C 30,6 C 19,4 C 72 % 1017,5 hPa 0,0 l/m 2 min 0 min 828 W/m 9,7 km/h (2 Bft) 95,74 %
20.08.2022 15:02 24,2 C 29,4 C 19,4 C 71 % 1017,4 hPa 0,0 l/m 2 min 0 min 827 W/m 12,9 km/h (3 Bft) 97,87 %
20.08.2022 15:04 24,3 C 29,4 C 19,4 C 71 % 1017,5 hPa 0,0 l/m 2 min 0 min 811 W/m 6,4 km/h (2 Bft) 97,87 %
20.08.2022 15:06 24,3 C 29,4 C 19,4 C 70 % 1017,4 hPa 0,0 l/m 2 min 0 min 801 W/m 19,3 km/h (3 Bft) 97,87 %
20.08.2022 15:08 24,4 C 29,4 C 19,4 C 69 % 1017,4 hPa 0,0 l/m 2 min 0 min 797 W/m 12,9 km/h (3 Bft) 97,83 %
20.08.2022 15:10 24,4 C 27,2 C 19,4 C 68 % 1017,4 hPa 0,0 l/m 2 min 0 min 798 W/m 16,1 km/h (3 Bft) 97,87 %
20.08.2022 15:12 24,3 C 27,2 C 19,4 C 68 % 1017,4 hPa 0,0 l/m 2 min 0 min 796 W/m 6,4 km/h (2 Bft) 95,74 %
20.08.2022 15:14 24,3 C 28,3 C 19,4 C 68 % 1017,4 hPa 0,0 l/m 2 min 0 min 780 W/m 6,4 km/h (2 Bft) 97,87 %
20.08.2022 15:16 24,3 C 27,8 C 19,4 C 70 % 1017,4 hPa 0,0 l/m 2 min 0 min 784 W/m 16,1 km/h (3 Bft) 95,74 %
20.08.2022 15:18 24,3 C 28,3 C 19,4 C 70 % 1017,4 hPa 0,0 l/m 2 min 0 min 800 W/m 12,9 km/h (3 Bft) 97,87 %
20.08.2022 15:20 24,4 C 28,9 C 19,4 C 69 % 1017,4 hPa 0,0 l/m 2 min 0 min 797 W/m 19,3 km/h (3 Bft) 97,83 %
20.08.2022 15:22 24,5 C 28,3 C 19,4 C 68 % 1017,4 hPa 0,0 l/m 2 min 0 min 778 W/m 12,9 km/h (3 Bft) 97,87 %
20.08.2022 15:24 24,4 C 26,1 C 19,4 C 67 % 1017,4 hPa 0,0 l/m 2 min 0 min 453 W/m 6,4 km/h (2 Bft) 95,74 %
20.08.2022 15:26 24,3 C 25,0 C 19,4 C 68 % 1017,4 hPa 0,0 l/m 0 min 0 min 204 W/m 12,9 km/h (3 Bft) 97,87 %
20.08.2022 15:28 24,2 C 26,1 C 19,4 C 69 % 1017,4 hPa 0,0 l/m 2 min 0 min 430 W/m 6,4 km/h (2 Bft) 97,87 %
20.08.2022 15:30 24,2 C 27,2 C 19,4 C 70 % 1017,4 hPa 0,0 l/m 2 min 0 min 769 W/m 12,9 km/h (3 Bft) 97,87 %
20.08.2022 15:32 24,1 C 27,8 C 19,4 C 68 % 1017,3 hPa 0,0 l/m 2 min 0 min 774 W/m 19,3 km/h (3 Bft) 95,65 %
20.08.2022 15:34 24,2 C 28,3 C 19,4 C 69 % 1017,3 hPa 0,0 l/m 2 min 0 min 792 W/m 6,4 km/h (2 Bft) 95,74 %
20.08.2022 15:36 24,3 C 28,9 C 20,0 C 69 % 1017,3 hPa 0,0 l/m 2 min 0 min 774 W/m 9,7 km/h (2 Bft) 95,74 %
20.08.2022 15:38 24,4 C 27,2 C 20,0 C 70 % 1017,3 hPa 0,0 l/m 2 min 0 min 563 W/m 9,7 km/h (2 Bft) 97,87 %
20.08.2022 15:40 24,4 C 27,8 C 20,0 C 69 % 1017,3 hPa 0,0 l/m 2 min 0 min 457 W/m 12,9 km/h (3 Bft) 95,74 %
20.08.2022 15:42 24,6 C 27,8 C 20,0 C 68 % 1017,3 hPa 0,0 l/m 2 min 0 min 798 W/m 12,9 km/h (3 Bft) 95,74 %
20.08.2022 15:44 24,6 C 28,9 C 20,0 C 69 % 1017,2 hPa 0,0 l/m 2 min 0 min 785 W/m 19,3 km/h (3 Bft) 97,83 %
20.08.2022 15:46 24,7 C 28,9 C 20,0 C 68 % 1017,3 hPa 0,0 l/m 2 min 0 min 771 W/m 9,7 km/h (2 Bft) 97,73 %
20.08.2022 15:48 24,8 C 28,9 C 20,0 C 68 % 1017,3 hPa 0,0 l/m 2 min 0 min 760 W/m 12,9 km/h (3 Bft) 97,87 %
20.08.2022 15:50 24,8 C 27,2 C 20,0 C 67 % 1017,3 hPa 0,0 l/m 2 min 0 min 545 W/m 16,1 km/h (3 Bft) 95,65 %
20.08.2022 15:52 24,7 C 26,7 C 20,0 C 68 % 1017,3 hPa 0,0 l/m 0 min 0 min 220 W/m 12,9 km/h (3 Bft) 97,87 %
20.08.2022 15:54 24,6 C 26,7 C 20,0 C 67 % 1017,2 hPa 0,0 l/m 2 min 0 min 746 W/m 12,9 km/h (3 Bft) 97,87 %
20.08.2022 15:56 24,6 C 27,2 C 20,0 C 67 % 1017,2 hPa 0,0 l/m 2 min 0 min 761 W/m 12,9 km/h (3 Bft) 95,74 %
20.08.2022 15:58 24,6 C 27,2 C 20,0 C 67 % 1017,3 hPa 0,0 l/m 2 min 0 min 729 W/m 6,4 km/h (2 Bft) 97,87 %
20.08.2022 16:00 24,6 C 26,7 C 20,0 C 68 % 1017,3 hPa 0,0 l/m 0 min 0 min 285 W/m 12,9 km/h (3 Bft) 97,87 %
20.08.2022 16:02 24,7 C 26,7 C 20,0 C 68 % 1017,3 hPa 0,0 l/m 0 min 0 min 285 W/m 12,9 km/h (3 Bft) 97,83 %
20.08.2022 16:04 24,7 C 26,7 C 20,0 C 68 % 1017,3 hPa 0,0 l/m 2 min 0 min 494 W/m 12,9 km/h (3 Bft) 97,87 %
20.08.2022 16:06 24,8 C 27,2 C 20,0 C 67 % 1017,3 hPa 0,0 l/m 2 min 0 min 702 W/m 6,4 km/h (2 Bft) 97,87 %
20.08.2022 16:08 24,8 C 27,2 C 20,0 C 68 % 1017,3 hPa 0,0 l/m 2 min 0 min 684 W/m 12,9 km/h (3 Bft) 100,00 %
20.08.2022 16:10 24,9 C 27,8 C 20,0 C 68 % 1017,3 hPa 0,0 l/m 2 min 0 min 706 W/m 9,7 km/h (2 Bft) 100,00 %
20.08.2022 16:12 25,0 C 27,2 C 20,0 C 67 % 1017,3 hPa 0,0 l/m 2 min 0 min 721 W/m 6,4 km/h (2 Bft) 100,00 %
20.08.2022 16:14 25,1 C 27,2 C 20,0 C 67 % 1017,2 hPa 0,0 l/m 2 min 0 min 707 W/m 12,9 km/h (3 Bft) 100,00 %
20.08.2022 16:16 25,1 C 27,2 C 20,0 C 66 % 1017,3 hPa 0,0 l/m 2 min 0 min 710 W/m 12,9 km/h (3 Bft) 100,00 %
20.08.2022 16:18 25,1 C 27,2 C 20,6 C 66 % 1017,2 hPa 0,0 l/m 2 min 0 min 714 W/m 12,9 km/h (3 Bft) 100,00 %
20.08.2022 16:20 25,1 C 26,7 C 20,0 C 67 % 1017,2 hPa 0,0 l/m 2 min 0 min 707 W/m 22,5 km/h (4 Bft) 100,00 %
20.08.2022 16:22 25,1 C 26,7 C 20,0 C 67 % 1017,2 hPa 0,0 l/m 2 min 0 min 604 W/m 16,1 km/h (3 Bft) 100,00 %
20.08.2022 16:24 25,0 C 26,7 C 20,0 C 67 % 1017,2 hPa 0,0 l/m 2 min 0 min 634 W/m 6,4 km/h (2 Bft) 100,00 %
20.08.2022 16:26 25,1 C 27,2 C 20,0 C 68 % 1017,2 hPa 0,0 l/m 2 min 0 min 673 W/m 6,4 km/h (2 Bft) 100,00 %
20.08.2022 16:28 25,1 C 27,2 C 20,0 C 67 % 1017,2 hPa 0,0 l/m 2 min 0 min 666 W/m 9,7 km/h (2 Bft) 100,00 %
20.08.2022 16:30 25,2 C 27,2 C 20,0 C 67 % 1017,2 hPa 0,0 l/m 2 min 0 min 644 W/m 16,1 km/h (3 Bft) 100,00 %
20.08.2022 16:32 25,2 C 27,2 C 20,0 C 66 % 1017,2 hPa 0,0 l/m 2 min 0 min 636 W/m 9,7 km/h (2 Bft) 97,92 %
20.08.2022 16:34 25,1 C 27,2 C 20,0 C 67 % 1017,3 hPa 0,0 l/m 2 min 0 min 624 W/m 12,9 km/h (3 Bft) 100,00 %
20.08.2022 16:36 25,1 C 27,2 C 20,0 C 66 % 1017,2 hPa 0,0 l/m 2 min 0 min 620 W/m 9,7 km/h (2 Bft) 100,00 %
20.08.2022 16:38 25,1 C 26,7 C 20,0 C 65 % 1017,2 hPa 0,0 l/m 2 min 0 min 618 W/m 12,9 km/h (3 Bft) 100,00 %
20.08.2022 16:40 25,1 C 27,2 C 20,0 C 66 % 1017,2 hPa 0,0 l/m 2 min 0 min 622 W/m 9,7 km/h (2 Bft) 100,00 %
20.08.2022 16:42 25,1 C 27,2 C 20,0 C 66 % 1017,2 hPa 0,0 l/m 2 min 0 min 610 W/m 6,4 km/h (2 Bft) 97,87 %
20.08.2022 16:44 25,1 C 27,2 C 20,0 C 66 % 1017,2 hPa 0,0 l/m 2 min 0 min 600 W/m 6,4 km/h (2 Bft) 100,00 %
20.08.2022 16:46 25,1 C 27,2 C 20,0 C 65 % 1017,2 hPa 0,0 l/m 2 min 0 min 607 W/m 9,7 km/h (2 Bft) 100,00 %
20.08.2022 16:48 25,1 C 27,2 C 20,0 C 64 % 1017,2 hPa 0,0 l/m 2 min 0 min 591 W/m 9,7 km/h (2 Bft) 97,87 %
20.08.2022 16:50 25,1 C 26,1 C 20,0 C 64 % 1017,2 hPa 0,0 l/m 2 min 0 min 425 W/m 12,9 km/h (3 Bft) 97,83 %
20.08.2022 16:52 25,1 C 25,6 C 20,0 C 63 % 1017,2 hPa 0,0 l/m 0 min 0 min 198 W/m 12,9 km/h (3 Bft) 95,74 %
20.08.2022 16:54 25,0 C 25,0 C 20,0 C 63 % 1017,2 hPa 0,0 l/m 0 min 0 min 189 W/m 16,1 km/h (3 Bft) 97,87 %
20.08.2022 16:56 24,9 C 24,4 C 20,0 C 62 % 1017,1 hPa 0,0 l/m 0 min 0 min 125 W/m 12,9 km/h (3 Bft) 95,74 %
20.08.2022 16:58 24,9 C 24,4 C 20,0 C 62 % 1017,2 hPa 0,0 l/m 0 min 0 min 100 W/m 12,9 km/h (3 Bft) 97,87 %
20.08.2022 17:00 24,8 C 25,6 C 20,0 C 62 % 1017,1 hPa 0,0 l/m 2 min 0 min 434 W/m 12,9 km/h (3 Bft) 97,87 %
20.08.2022 17:02 24,8 C 27,2 C 20,0 C 63 % 1017,2 hPa 0,0 l/m 2 min 0 min 587 W/m 9,7 km/h (2 Bft) 97,87 %
20.08.2022 17:04 24,8 C 27,2 C 20,0 C 63 % 1017,2 hPa 0,0 l/m 2 min 0 min 545 W/m 3,2 km/h (1 Bft) 97,87 %
20.08.2022 17:06 24,8 C 26,1 C 20,0 C 63 % 1017,1 hPa 0,0 l/m 0 min 0 min 156 W/m 6,4 km/h (2 Bft) 97,87 %
20.08.2022 17:08 24,8 C 26,7 C 20,0 C 64 % 1017,1 hPa 0,0 l/m 2 min 0 min 352 W/m 3,2 km/h (1 Bft) 97,87 %
20.08.2022 17:10 24,8 C 27,2 C 20,0 C 64 % 1017,1 hPa 0,0 l/m 2 min 0 min 583 W/m 6,4 km/h (2 Bft) 97,87 %
20.08.2022 17:12 24,8 C 27,8 C 20,0 C 63 % 1017,1 hPa 0,0 l/m 2 min 0 min 592 W/m 6,4 km/h (2 Bft) 97,87 %
20.08.2022 17:14 24,8 C 27,8 C 20,6 C 62 % 1017,2 hPa 0,0 l/m 2 min 0 min 564 W/m 12,9 km/h (3 Bft) 97,83 %
20.08.2022 17:16 24,9 C 28,3 C 20,6 C 62 % 1017,1 hPa 0,0 l/m 2 min 0 min 581 W/m 12,9 km/h (3 Bft) 97,87 %
20.08.2022 17:18 25,1 C 28,3 C 20,6 C 62 % 1017,1 hPa 0,0 l/m 2 min 0 min 572 W/m 12,9 km/h (3 Bft) 97,87 %
20.08.2022 17:20 25,1 C 28,3 C 20,6 C 61 % 1017,1 hPa 0,0 l/m 2 min 0 min 566 W/m 12,9 km/h (3 Bft) 97,87 %
20.08.2022 17:22 25,2 C 28,9 C 20,6 C 62 % 1017,1 hPa 0,0 l/m 2 min 0 min 557 W/m 3,2 km/h (1 Bft) 97,87 %
20.08.2022 17:24 25,3 C 28,9 C 21,1 C 61 % 1017,1 hPa 0,0 l/m 2 min 0 min 554 W/m 16,1 km/h (3 Bft) 97,87 %
20.08.2022 17:26 25,3 C 28,9 C 21,1 C 61 % 1017,1 hPa 0,0 l/m 2 min 0 min 558 W/m 12,9 km/h (3 Bft) 95,65 %
20.08.2022 17:28 25,4 C 28,9 C 21,1 C 61 % 1017,1 hPa 0,0 l/m 2 min 0 min 548 W/m 9,7 km/h (2 Bft) 91,49 %
20.08.2022 17:30 25,4 C 29,4 C 21,1 C 61 % 1017,1 hPa 0,0 l/m 2 min 0 min 539 W/m 12,9 km/h (3 Bft) 95,74 %
20.08.2022 17:32 25,5 C 28,9 C 21,1 C 60 % 1017,1 hPa 0,0 l/m 2 min 0 min 526 W/m 9,7 km/h (2 Bft) 89,36 %
20.08.2022 17:34 25,6 C 28,9 C 20,6 C 60 % 1017,1 hPa 0,0 l/m 2 min 0 min 516 W/m 16,1 km/h (3 Bft) 93,62 %
20.08.2022 17:36 25,5 C 28,3 C 20,6 C 59 % 1017,1 hPa 0,0 l/m 2 min 0 min 504 W/m 16,1 km/h (3 Bft) 91,49 %
20.08.2022 17:38 25,5 C 28,3 C 20,6 C 60 % 1017,1 hPa 0,0 l/m 2 min 0 min 508 W/m 12,9 km/h (3 Bft) 93,48 %
20.08.2022 17:40 25,5 C 27,2 C 20,6 C 61 % 1017,1 hPa 0,0 l/m 2 min 0 min 321 W/m 9,7 km/h (2 Bft) 95,74 %
20.08.2022 17:42 25,4 C 26,7 C 20,6 C 62 % 1017,1 hPa 0,0 l/m 0 min 0 min 223 W/m 6,4 km/h (2 Bft) 93,62 %
20.08.2022 17:44 25,3 C 26,1 C 20,6 C 62 % 1017,1 hPa 0,0 l/m 2 min 0 min 278 W/m 12,9 km/h (3 Bft) 93,62 %
20.08.2022 17:46 25,2 C 27,2 C 20,6 C 62 % 1017,1 hPa 0,0 l/m 2 min 0 min 465 W/m 16,1 km/h (3 Bft) 95,74 %
20.08.2022 17:48 25,2 C 27,2 C 20,6 C 61 % 1017,1 hPa 0,0 l/m 2 min 0 min 452 W/m 19,3 km/h (3 Bft) 95,74 %
20.08.2022 17:50 25,2 C 27,8 C 20,6 C 61 % 1017,1 hPa 0,0 l/m 2 min 0 min 428 W/m 22,5 km/h (4 Bft) 95,65 %
20.08.2022 17:52 25,2 C 27,8 C 20,6 C 61 % 1017,1 hPa 0,0 l/m 2 min 0 min 421 W/m 16,1 km/h (3 Bft) 93,62 %
20.08.2022 17:54 25,2 C 28,3 C 20,6 C 61 % 1017,1 hPa 0,0 l/m 2 min 0 min 414 W/m 16,1 km/h (3 Bft) 93,62 %
20.08.2022 17:56 25,2 C 28,3 C 20,6 C 61 % 1017,1 hPa 0,0 l/m 2 min 0 min 402 W/m 12,9 km/h (3 Bft) 95,74 %
20.08.2022 17:58 25,2 C 27,8 C 20,6 C 60 % 1017,1 hPa 0,0 l/m 2 min 0 min 396 W/m 19,3 km/h (3 Bft) 95,74 %
20.08.2022 18:00 25,1 C 27,8 C 20,6 C 61 % 1017,1 hPa 0,0 l/m 2 min 0 min 395 W/m 16,1 km/h (3 Bft) 95,74 %
20.08.2022 18:02 25,1 C 27,8 C 20,6 C 61 % 1017,2 hPa 0,0 l/m 2 min 0 min 388 W/m 12,9 km/h (3 Bft) 95,65 %
20.08.2022 18:04 25,2 C 27,8 C 20,6 C 61 % 1017,2 hPa 0,0 l/m 2 min 0 min 384 W/m 19,3 km/h (3 Bft) 97,87 %
20.08.2022 18:07 25,2 C 26,7 C 20,6 C 60 % 1017,1 hPa 0,0 l/m 0 min 0 min 141 W/m 12,9 km/h (3 Bft) 97,87 %
20.08.2022 18:08 25,2 C 26,1 C 20,6 C 60 % 1017,1 hPa 0,0 l/m 1 min 0 min 261 W/m 12,9 km/h (3 Bft) 97,89 %
20.08.2022 18:10 25,1 C 26,1 C 20,6 C 60 % 1017,1 hPa 0,0 l/m 0 min 0 min 188 W/m 12,9 km/h (3 Bft) 97,87 %
20.08.2022 18:12 25,1 C 26,7 C 20,6 C 61 % 1017,1 hPa 0,0 l/m 2 min 0 min 335 W/m 12,9 km/h (3 Bft) 97,87 %
20.08.2022 18:14 25,1 C 27,2 C 20,6 C 61 % 1017,1 hPa 0,0 l/m 2 min 0 min 349 W/m 9,7 km/h (2 Bft) 100,00 %
20.08.2022 18:16 25,0 C 27,2 C 20,6 C 61 % 1017,1 hPa 0,0 l/m 2 min 0 min 346 W/m 16,1 km/h (3 Bft) 100,00 %
20.08.2022 18:18 24,9 C 27,2 C 20,6 C 61 % 1017,1 hPa 0,0 l/m 2 min 0 min 335 W/m 19,3 km/h (3 Bft) 100,00 %
20.08.2022 18:20 24,8 C 26,7 C 20,0 C 60 % 1017,2 hPa 0,0 l/m 2 min 0 min 322 W/m 12,9 km/h (3 Bft) 100,00 %
20.08.2022 18:22 24,8 C 26,7 C 20,0 C 61 % 1017,1 hPa 0,0 l/m 2 min 0 min 282 W/m 12,9 km/h (3 Bft) 97,87 %
20.08.2022 18:24 24,8 C 26,1 C 20,0 C 61 % 1017,1 hPa 0,0 l/m 2 min 0 min 199 W/m 12,9 km/h (3 Bft) 100,00 %
20.08.2022 18:26 24,7 C 25,0 C 20,0 C 62 % 1017,1 hPa 0,0 l/m 0 min 0 min 110 W/m 6,4 km/h (2 Bft) 100,00 %
20.08.2022 18:28 24,7 C 24,4 C 20,0 C 62 % 1017,1 hPa 0,0 l/m 0 min 0 min 103 W/m 12,9 km/h (3 Bft) 100,00 %
20.08.2022 18:30 24,6 C 23,9 C 20,0 C 62 % 1017,1 hPa 0,0 l/m 0 min 0 min 98 W/m 6,4 km/h (2 Bft) 100,00 %
20.08.2022 18:32 24,6 C 23,9 C 19,4 C 62 % 1017,1 hPa 0,0 l/m 0 min 0 min 98 W/m 6,4 km/h (2 Bft) 100,00 %
20.08.2022 18:34 24,5 C 23,9 C 19,4 C 63 % 1017,1 hPa 0,0 l/m 0 min 0 min 112 W/m 6,4 km/h (2 Bft) 100,00 %
20.08.2022 18:36 24,5 C 24,4 C 19,4 C 63 % 1017,1 hPa 0,0 l/m 2 min 0 min 174 W/m 6,4 km/h (2 Bft) 100,00 %
20.08.2022 18:38 24,4 C 25,6 C 19,4 C 63 % 1017,1 hPa 0,0 l/m 2 min 0 min 245 W/m 3,2 km/h (1 Bft) 100,00 %
20.08.2022 18:40 24,5 C 25,6 C 20,0 C 63 % 1017,1 hPa 0,0 l/m 2 min 0 min 252 W/m 6,4 km/h (2 Bft) 97,87 %
20.08.2022 18:42 24,5 C 25,6 C 20,0 C 63 % 1017,1 hPa 0,0 l/m 2 min 0 min 243 W/m 12,9 km/h (3 Bft) 100,00 %
20.08.2022 18:44 24,6 C 25,0 C 20,0 C 62 % 1017,1 hPa 0,0 l/m 2 min 0 min 237 W/m 3,2 km/h (1 Bft) 100,00 %
20.08.2022 18:45 24,6 C 25,0 C 20,0 C 63 % 1017,1 hPa 0,0 l/m 1 min 0 min 236 W/m 12,9 km/h (3 Bft) 100,00 %
20.08.2022 18:52 24,6 C 23,9 C 19,4 C 62 % 1017,2 hPa 0,0 l/m 5 min 0 min 143 W/m 6,4 km/h (2 Bft) 100,00 %
20.08.2022 18:54 24,6 C 23,9 C 19,4 C 62 % 1017,1 hPa 0,0 l/m 0 min 0 min 117 W/m 12,9 km/h (3 Bft) 100,00 %
20.08.2022 18:56 24,6 C 23,9 C 19,4 C 63 % 1017,2 hPa 0,0 l/m 0 min 0 min 73 W/m 6,4 km/h (2 Bft) 100,00 %
20.08.2022 18:58 24,6 C 23,9 C 19,4 C 62 % 1017,2 hPa 0,0 l/m 0 min 0 min 65 W/m 3,2 km/h (1 Bft) 100,00 %
20.08.2022 19:00 24,6 C 23,3 C 19,4 C 62 % 1017,2 hPa 0,0 l/m 0 min 0 min 62 W/m 3,2 km/h (1 Bft) 100,00 %
20.08.2022 19:02 24,5 C 23,3 C 18,9 C 62 % 1017,2 hPa 0,0 l/m 0 min 0 min 60 W/m 6,4 km/h (2 Bft) 100,00 %
20.08.2022 19:04 24,4 C 23,3 C 18,9 C 62 % 1017,2 hPa 0,0 l/m 0 min 0 min 55 W/m 6,4 km/h (2 Bft) 100,00 %
20.08.2022 19:06 24,4 C 23,3 C 18,9 C 62 % 1017,2 hPa 0,0 l/m 0 min 0 min 53 W/m 9,7 km/h (2 Bft) 100,00 %
20.08.2022 19:08 24,3 C 23,3 C 18,9 C 62 % 1017,2 hPa 0,0 l/m 0 min 0 min 53 W/m 9,7 km/h (2 Bft) 100,00 %
20.08.2022 19:10 24,3 C 22,8 C 18,9 C 62 % 1017,2 hPa 0,0 l/m 0 min 0 min 51 W/m 6,4 km/h (2 Bft) 97,83 %
20.08.2022 19:12 24,2 C 22,8 C 18,9 C 62 % 1017,2 hPa 0,0 l/m 0 min 0 min 51 W/m 3,2 km/h (1 Bft) 100,00 %
20.08.2022 19:14 24,1 C 22,8 C 18,9 C 63 % 1017,1 hPa 0,0 l/m 0 min 0 min 54 W/m 6,4 km/h (2 Bft) 100,00 %
20.08.2022 19:16 24,1 C 22,8 C 18,9 C 62 % 1017,2 hPa 0,0 l/m 0 min 0 min 61 W/m 6,4 km/h (2 Bft) 100,00 %
20.08.2022 19:18 24,1 C 22,8 C 18,9 C 63 % 1017,2 hPa 0,0 l/m 0 min 0 min 64 W/m 3,2 km/h (1 Bft) 100,00 %
20.08.2022 19:20 24,0 C 22,8 C 18,9 C 63 % 1017,2 hPa 0,0 l/m 0 min 0 min 68 W/m 9,7 km/h (2 Bft) 100,00 %
20.08.2022 19:22 23,9 C 22,8 C 18,9 C 63 % 1017,2 hPa 0,0 l/m 0 min 0 min 69 W/m 6,4 km/h (2 Bft) 100,00 %
20.08.2022 19:24 23,9 C 22,8 C 18,9 C 63 % 1017,1 hPa 0,0 l/m 0 min 0 min 69 W/m 3,2 km/h (1 Bft) 100,00 %
20.08.2022 19:26 23,9 C 22,8 C 18,9 C 63 % 1017,2 hPa 0,0 l/m 0 min 0 min 70 W/m 6,4 km/h (2 Bft) 100,00 %
20.08.2022 19:28 23,8 C 22,8 C 18,9 C 64 % 1017,1 hPa 0,0 l/m 0 min 0 min 70 W/m 3,2 km/h (1 Bft) 100,00 %
20.08.2022 19:30 23,8 C 22,8 C 18,9 C 64 % 1017,1 hPa 0,0 l/m 0 min 0 min 68 W/m 3,2 km/h (1 Bft) 100,00 %
20.08.2022 19:32 23,8 C 22,8 C 18,9 C 64 % 1017,2 hPa 0,0 l/m 0 min 0 min 62 W/m 3,2 km/h (1 Bft) 97,87 %
20.08.2022 19:34 23,8 C 22,8 C 18,9 C 64 % 1017,1 hPa 0,0 l/m 0 min 0 min 56 W/m 6,4 km/h (2 Bft) 97,83 %
20.08.2022 19:36 23,8 C 22,8 C 18,3 C 64 % 1017,1 hPa 0,0 l/m 0 min 0 min 51 W/m 6,4 km/h (2 Bft) 97,87 %
20.08.2022 19:38 23,8 C 22,8 C 18,3 C 64 % 1017,2 hPa 0,0 l/m 0 min 0 min 47 W/m 6,4 km/h (2 Bft) 95,74 %
20.08.2022 19:40 23,7 C 22,8 C 18,9 C 64 % 1017,2 hPa 0,0 l/m 0 min 0 min 45 W/m 3,2 km/h (1 Bft) 97,87 %
20.08.2022 19:42 23,7 C 22,8 C 18,3 C 65 % 1017,2 hPa 0,0 l/m 0 min 0 min 44 W/m 0,0 km/h (0 Bft) 95,74 %
20.08.2022 19:44 23,7 C 22,8 C 18,3 C 65 % 1017,2 hPa 0,0 l/m 0 min 0 min 43 W/m 3,2 km/h (1 Bft) 97,87 %
20.08.2022 19:46 23,7 C 22,8 C 18,3 C 65 % 1017,2 hPa 0,0 l/m 0 min 0 min 43 W/m 3,2 km/h (1 Bft) 95,65 %
20.08.2022 19:48 23,6 C 22,8 C 18,3 C 65 % 1017,3 hPa 0,0 l/m 0 min 0 min 41 W/m 3,2 km/h (1 Bft) 97,87 %
20.08.2022 19:50 23,6 C 22,8 C 18,3 C 66 % 1017,3 hPa 0,0 l/m 0 min 0 min 39 W/m 3,2 km/h (1 Bft) 95,74 %
20.08.2022 19:52 23,6 C 22,8 C 18,3 C 65 % 1017,3 hPa 0,0 l/m 0 min 0 min 38 W/m 6,4 km/h (2 Bft) 97,87 %
20.08.2022 19:54 23,5 C 22,2 C 18,3 C 65 % 1017,3 hPa 0,0 l/m 0 min 0 min 39 W/m 3,2 km/h (1 Bft) 97,87 %
20.08.2022 19:56 23,5 C 22,2 C 18,3 C 65 % 1017,3 hPa 0,0 l/m 0 min 0 min 39 W/m 3,2 km/h (1 Bft) 95,74 %
20.08.2022 19:58 23,4 C 22,2 C 18,3 C 65 % 1017,3 hPa 0,0 l/m 0 min 0 min 37 W/m 3,2 km/h (1 Bft) 97,83 %
20.08.2022 20:00 23,4 C 22,2 C 18,3 C 66 % 1017,3 hPa 0,0 l/m 0 min 0 min 35 W/m 3,2 km/h (1 Bft) 95,74 %
20.08.2022 20:02 23,4 C 22,2 C 17,8 C 66 % 1017,3 hPa 0,0 l/m 0 min 0 min 34 W/m 3,2 km/h (1 Bft) 93,62 %
20.08.2022 20:04 23,4 C 22,2 C 17,8 C 67 % 1017,3 hPa 0,0 l/m 0 min 0 min 33 W/m 0,0 km/h (0 Bft) 93,62 %
20.08.2022 20:06 23,3 C 22,2 C 17,8 C 67 % 1017,3 hPa 0,0 l/m 0 min 0 min 31 W/m 0,0 km/h (0 Bft) 95,74 %
20.08.2022 20:08 23,3 C 21,7 C 17,8 C 68 % 1017,3 hPa 0,0 l/m 0 min 0 min 30 W/m 3,2 km/h (1 Bft) 95,74 %
20.08.2022 20:10 23,2 C 21,7 C 17,8 C 67 % 1017,3 hPa 0,0 l/m 0 min 0 min 28 W/m 3,2 km/h (1 Bft) 95,74 %
20.08.2022 20:12 23,2 C 21,7 C 17,8 C 67 % 1017,3 hPa 0,0 l/m 0 min 0 min 27 W/m 3,2 km/h (1 Bft) 93,48 %
20.08.2022 20:14 23,2 C 21,7 C 17,8 C 67 % 1017,3 hPa 0,0 l/m 0 min 0 min 25 W/m 0,0 km/h (0 Bft) 93,62 %
20.08.2022 20:16 23,1 C 21,7 C 17,8 C 68 % 1017,3 hPa 0,0 l/m 0 min 0 min 24 W/m 3,2 km/h (1 Bft) 93,62 %
20.08.2022 20:18 23,1 C 21,7 C 17,2 C 69 % 1017,4 hPa 0,0 l/m 0 min 0 min 22 W/m 0,0 km/h (0 Bft) 95,74 %
20.08.2022 20:20 23,1 C 21,1 C 17,2 C 69 % 1017,4 hPa 0,0 l/m 0 min 0 min 21 W/m 3,2 km/h (1 Bft) 95,74 %
20.08.2022 20:22 22,9 C 21,1 C 17,2 C 69 % 1017,4 hPa 0,0 l/m 0 min 0 min 19 W/m 0,0 km/h (0 Bft) 95,65 %
20.08.2022 20:24 22,9 C 21,1 C 17,2 C 69 % 1017,4 hPa 0,0 l/m 0 min 0 min 17 W/m 3,2 km/h (1 Bft) 95,74 %
20.08.2022 20:26 22,9 C 21,1 C 16,7 C 70 % 1017,4 hPa 0,0 l/m 0 min 0 min 15 W/m 0,0 km/h (0 Bft) 93,62 %
20.08.2022 20:28 22,8 C 21,1 C 16,7 C 70 % 1017,4 hPa 0,0 l/m 0 min 0 min 14 W/m 6,4 km/h (2 Bft) 95,74 %
20.08.2022 20:30 22,7 C 21,1 C 17,2 C 69 % 1017,4 hPa 0,0 l/m 0 min 0 min 14 W/m 3,2 km/h (1 Bft) 93,62 %
20.08.2022 20:32 22,7 C 21,1 C 17,2 C 69 % 1017,4 hPa 0,0 l/m 0 min 0 min 12 W/m 3,2 km/h (1 Bft) 93,62 %
20.08.2022 20:34 22,6 C 21,1 C 16,7 C 69 % 1017,4 hPa 0,0 l/m 0 min 0 min 11 W/m 0,0 km/h (0 Bft) 95,65 %
20.08.2022 20:36 22,6 C 20,6 C 16,7 C 69 % 1017,5 hPa 0,0 l/m 0 min 0 min 10 W/m 3,2 km/h (1 Bft) 95,74 %
20.08.2022 20:38 22,6 C 20,6 C 16,7 C 69 % 1017,5 hPa 0,0 l/m 0 min 0 min 9 W/m 3,2 km/h (1 Bft) 95,74 %
20.08.2022 20:40 22,5 C 20,6 C 16,7 C 69 % 1017,5 hPa 0,0 l/m 0 min 0 min 8 W/m 6,4 km/h (2 Bft) 95,74 %
20.08.2022 20:42 22,4 C 20,6 C 16,7 C 69 % 1017,5 hPa 0,0 l/m 0 min 0 min 6 W/m 0,0 km/h (0 Bft) 95,74 %
20.08.2022 20:44 22,4 C 20,6 C 16,7 C 69 % 1017,5 hPa 0,0 l/m 0 min 0 min 5 W/m 3,2 km/h (1 Bft) 95,74 %
20.08.2022 20:46 22,4 C 20,6 C 16,7 C 70 % 1017,4 hPa 0,0 l/m 0 min 0 min 5 W/m 0,0 km/h (0 Bft) 95,65 %
20.08.2022 20:48 22,3 C 20,0 C 16,7 C 70 % 1017,4 hPa 0,0 l/m 0 min 0 min 2 W/m 3,2 km/h (1 Bft) 100,00 %
20.08.2022 20:50 22,3 C 20,0 C 16,1 C 71 % 1017,4 hPa 0,0 l/m 0 min 0 min 0 W/m 0,0 km/h (0 Bft) 100,00 %
20.08.2022 20:52 22,2 C 20,0 C 16,1 C 71 % 1017,4 hPa 0,0 l/m 0 min 0 min 0 W/m 0,0 km/h (0 Bft) 100,00 %
20.08.2022 20:54 22,2 C 20,0 C 16,1 C 71 % 1017,4 hPa 0,0 l/m 0 min 0 min 0 W/m 0,0 km/h (0 Bft) 97,87 %
20.08.2022 20:56 22,1 C 20,0 C 16,1 C 72 % 1017,4 hPa 0,0 l/m 0 min 0 min 0 W/m 0,0 km/h (0 Bft) 100,00 %
20.08.2022 20:58 22,1 C 20,0 C 16,1 C 72 % 1017,5 hPa 0,0 l/m 0 min 0 min 0 W/m 3,2 km/h (1 Bft) 100,00 %
20.08.2022 21:00 22,0 C 20,0 C 16,1 C 71 % 1017,6 hPa 0,0 l/m 0 min 0 min 0 W/m 3,2 km/h (1 Bft) 100,00 %
20.08.2022 21:02 21,9 C 19,4 C 15,6 C 72 % 1017,6 hPa 0,0 l/m 0 min 0 min 0 W/m 0,0 km/h (0 Bft) 100,00 %
20.08.2022 21:04 21,8 C 19,4 C 15,6 C 72 % 1017,6 hPa 0,0 l/m 0 min 0 min 0 W/m 3,2 km/h (1 Bft) 100,00 %
20.08.2022 21:06 21,8 C 19,4 C 16,1 C 72 % 1017,7 hPa 0,0 l/m 0 min 0 min 0 W/m 3,2 km/h (1 Bft) 100,00 %
20.08.2022 21:08 21,7 C 19,4 C 16,1 C 71 % 1017,7 hPa 0,0 l/m 0 min 0 min 0 W/m 3,2 km/h (1 Bft) 100,00 %
20.08.2022 21:10 21,6 C 20,0 C 16,1 C 72 % 1017,6 hPa 0,0 l/m 0 min 0 min 0 W/m 3,2 km/h (1 Bft) 100,00 %
20.08.2022 21:12 21,5 C 20,0 C 16,1 C 72 % 1017,7 hPa 0,0 l/m 0 min 0 min 0 W/m 6,4 km/h (2 Bft) 100,00 %
20.08.2022 21:14 21,5 C 20,0 C 16,1 C 72 % 1017,7 hPa 0,0 l/m 0 min 0 min 0 W/m 6,4 km/h (2 Bft) 97,87 %
20.08.2022 21:16 21,4 C 19,4 C 16,1 C 72 % 1017,6 hPa 0,0 l/m 0 min 0 min 0 W/m 3,2 km/h (1 Bft) 100,00 %
20.08.2022 21:18 21,4 C 19,4 C 16,1 C 72 % 1017,7 hPa 0,0 l/m 0 min 0 min 0 W/m 6,4 km/h (2 Bft) 100,00 %
20.08.2022 21:20 21,3 C 19,4 C 16,1 C 72 % 1017,7 hPa 0,0 l/m 0 min 0 min 0 W/m 3,2 km/h (1 Bft) 100,00 %
20.08.2022 21:22 21,3 C 19,4 C 16,1 C 72 % 1017,7 hPa 0,0 l/m 0 min 0 min 0 W/m 6,4 km/h (2 Bft) 100,00 %
20.08.2022 21:24 21,2 C 19,4 C 16,1 C 72 % 1017,7 hPa 0,0 l/m 0 min 0 min 0 W/m 6,4 km/h (2 Bft) 100,00 %
20.08.2022 21:26 21,2 C 19,4 C 16,1 C 72 % 1017,7 hPa 0,0 l/m 0 min 0 min 0 W/m 6,4 km/h (2 Bft) 100,00 %
20.08.2022 21:28 21,1 C 19,4 C 16,1 C 72 % 1017,7 hPa 0,0 l/m 0 min 0 min 0 W/m 6,4 km/h (2 Bft) 97,87 %
20.08.2022 21:30 21,1 C 19,4 C 16,1 C 73 % 1017,7 hPa 0,0 l/m 0 min 0 min 0 W/m 3,2 km/h (1 Bft) 97,87 %
20.08.2022 21:32 21,1 C 19,4 C 16,1 C 73 % 1017,8 hPa 0,0 l/m 0 min 0 min 0 W/m 3,2 km/h (1 Bft) 97,92 %
20.08.2022 21:34 21,0 C 19,4 C 15,6 C 73 % 1017,8 hPa 0,0 l/m 0 min 0 min 0 W/m 3,2 km/h (1 Bft) 95,74 %
20.08.2022 21:36 20,9 C 19,4 C 15,6 C 73 % 1017,8 hPa 0,0 l/m 0 min 0 min 0 W/m 0,0 km/h (0 Bft) 97,87 %
20.08.2022 21:38 20,9 C 19,4 C 15,6 C 73 % 1017,8 hPa 0,0 l/m 0 min 0 min 0 W/m 3,2 km/h (1 Bft) 97,87 %
20.08.2022 21:40 20,8 C 18,9 C 15,6 C 74 % 1017,8 hPa 0,0 l/m 0 min 0 min 0 W/m 0,0 km/h (0 Bft) 95,74 %
20.08.2022 21:42 20,8 C 18,9 C 15,6 C 74 % 1017,8 hPa 0,0 l/m 0 min 0 min 0 W/m 0,0 km/h (0 Bft) 97,87 %
20.08.2022 21:44 20,8 C 18,9 C 15,6 C 74 % 1017,8 hPa 0,0 l/m 0 min 0 min 0 W/m 3,2 km/h (1 Bft) 95,65 %
20.08.2022 21:46 20,7 C 18,9 C 15,6 C 74 % 1017,8 hPa 0,0 l/m 0 min 0 min 0 W/m 3,2 km/h (1 Bft) 97,30 %
20.08.2022 21:48 20,7 C 18,9 C 15,6 C 74 % 1017,8 hPa 0,0 l/m 0 min 0 min 0 W/m 3,2 km/h (1 Bft) 97,83 %
20.08.2022 21:50 20,6 C 18,9 C 15,6 C 75 % 1017,9 hPa 0,0 l/m 0 min 0 min 0 W/m 3,2 km/h (1 Bft) 97,87 %
20.08.2022 21:52 20,6 C 18,9 C 15,6 C 75 % 1017,9 hPa 0,0 l/m 0 min 0 min 0 W/m 3,2 km/h (1 Bft) 97,87 %
20.08.2022 21:54 20,6 C 18,9 C 15,6 C 75 % 1017,9 hPa 0,0 l/m 0 min 0 min 0 W/m 3,2 km/h (1 Bft) 97,87 %
20.08.2022 21:56 20,5 C 18,9 C 15,6 C 75 % 1017,9 hPa 0,0 l/m 0 min 0 min 0 W/m 3,2 km/h (1 Bft) 95,74 %
20.08.2022 21:58 20,4 C 18,9 C 15,6 C 75 % 1018,0 hPa 0,0 l/m 0 min 0 min 0 W/m 3,2 km/h (1 Bft) 97,87 %
20.08.2022 22:00 20,4 C 18,9 C 15,0 C 76 % 1018,0 hPa 0,0 l/m 0 min 0 min 0 W/m 3,2 km/h (1 Bft) 100,00 %
20.08.2022 22:02 20,3 C 18,9 C 15,0 C 76 % 1018,0 hPa 0,0 l/m 0 min 0 min 0 W/m 6,4 km/h (2 Bft) 95,83 %
20.08.2022 22:04 20,3 C 18,9 C 15,0 C 76 % 1018,0 hPa 0,0 l/m 0 min 0 min 0 W/m 6,4 km/h (2 Bft) 100,00 %
20.08.2022 22:06 20,3 C 18,9 C 15,0 C 76 % 1018,0 hPa 0,0 l/m 0 min 0 min 0 W/m 6,4 km/h (2 Bft) 100,00 %
20.08.2022 22:08 20,2 C 18,9 C 15,0 C 76 % 1018,0 hPa 0,0 l/m 0 min 0 min 0 W/m 3,2 km/h (1 Bft) 97,14 %
20.08.2022 22:10 20,2 C 18,9 C 15,0 C 76 % 1018,0 hPa 0,0 l/m 0 min 0 min 0 W/m 6,4 km/h (2 Bft) 100,00 %
20.08.2022 22:12 20,1 C 18,9 C 15,0 C 76 % 1018,0 hPa 0,0 l/m 0 min 0 min 0 W/m 6,4 km/h (2 Bft) 100,00 %
20.08.2022 22:14 20,1 C 18,9 C 15,0 C 77 % 1018,0 hPa 0,0 l/m 0 min 0 min 0 W/m 0,0 km/h (0 Bft) 97,87 %
20.08.2022 22:16 20,1 C 18,3 C 15,0 C 77 % 1018,0 hPa 0,0 l/m 0 min 0 min 0 W/m 3,2 km/h (1 Bft) 100,00 %
20.08.2022 22:18 20,1 C 18,3 C 15,0 C 77 % 1018,0 hPa 0,0 l/m 0 min 0 min 0 W/m 0,0 km/h (0 Bft) 100,00 %
20.08.2022 22:20 20,0 C 18,3 C 15,0 C 78 % 1018,0 hPa 0,0 l/m 0 min 0 min 0 W/m 3,2 km/h (1 Bft) 100,00 %
20.08.2022 22:22 19,9 C 18,3 C 15,0 C 78 % 1018,0 hPa 0,0 l/m 0 min 0 min 0 W/m 3,2 km/h (1 Bft) 100,00 %
20.08.2022 22:24 19,9 C 18,3 C 15,0 C 78 % 1018,0 hPa 0,0 l/m 0 min 0 min 0 W/m 3,2 km/h (1 Bft) 97,87 %
20.08.2022 22:26 19,9 C 18,3 C 15,0 C 78 % 1018,0 hPa 0,0 l/m 0 min 0 min 0 W/m 3,2 km/h (1 Bft) 100,00 %
20.08.2022 22:28 19,8 C 18,3 C 15,0 C 79 % 1018,0 hPa 0,0 l/m 0 min 0 min 0 W/m 3,2 km/h (1 Bft) 97,87 %
20.08.2022 22:30 19,8 C 18,3 C 15,0 C 79 % 1017,9 hPa 0,0 l/m 0 min 0 min 0 W/m 0,0 km/h (0 Bft) 100,00 %
20.08.2022 22:32 19,8 C 18,3 C 15,0 C 79 % 1017,9 hPa 0,0 l/m 0 min 0 min 0 W/m 0,0 km/h (0 Bft) 97,87 %
20.08.2022 22:34 19,7 C 18,3 C 14,4 C 79 % 1017,9 hPa 0,0 l/m 0 min 0 min 0 W/m 0,0 km/h (0 Bft) 100,00 %
20.08.2022 22:36 19,7 C 17,8 C 14,4 C 79 % 1017,8 hPa 0,0 l/m 0 min 0 min 0 W/m 0,0 km/h (0 Bft) 100,00 %
20.08.2022 22:38 19,7 C 17,8 C 14,4 C 79 % 1017,8 hPa 0,0 l/m 0 min 0 min 0 W/m 0,0 km/h (0 Bft) 100,00 %
20.08.2022 22:40 19,6 C 17,8 C 14,4 C 80 % 1017,8 hPa 0,0 l/m 0 min 0 min 0 W/m 3,2 km/h (1 Bft) 97,87 %
20.08.2022 22:42 19,6 C 17,8 C 14,4 C 80 % 1017,8 hPa 0,0 l/m 0 min 0 min 0 W/m 0,0 km/h (0 Bft) 97,87 %
20.08.2022 22:44 19,5 C 17,8 C 14,4 C 80 % 1017,8 hPa 0,0 l/m 0 min 0 min 0 W/m 0,0 km/h (0 Bft) 97,87 %
20.08.2022 22:46 19,5 C 17,8 C 14,4 C 80 % 1017,8 hPa 0,0 l/m 0 min 0 min 0 W/m 3,2 km/h (1 Bft) 97,83 %
20.08.2022 22:48 19,4 C 17,8 C 14,4 C 80 % 1017,8 hPa 0,0 l/m 0 min 0 min 0 W/m 3,2 km/h (1 Bft) 97,87 %
20.08.2022 22:50 19,4 C 17,8 C 14,4 C 80 % 1017,8 hPa 0,0 l/m 0 min 0 min 0 W/m 3,2 km/h (1 Bft) 97,87 %
20.08.2022 22:52 19,3 C 17,8 C 14,4 C 80 % 1017,8 hPa 0,0 l/m 0 min 0 min 0 W/m 3,2 km/h (1 Bft) 95,74 %
20.08.2022 22:54 19,3 C 17,8 C 14,4 C 80 % 1017,8 hPa 0,0 l/m 0 min 0 min 0 W/m 0,0 km/h (0 Bft) 96,00 %
20.08.2022 22:56 19,3 C 17,8 C 14,4 C 80 % 1017,9 hPa 0,0 l/m 0 min 0 min 0 W/m 3,2 km/h (1 Bft) 95,65 %
20.08.2022 22:58 19,2 C 17,8 C 14,4 C 81 % 1017,8 hPa 0,0 l/m 0 min 0 min 0 W/m 0,0 km/h (0 Bft) 95,74 %
20.08.2022 23:00 19,2 C 17,2 C 13,9 C 81 % 1017,8 hPa 0,0 l/m 0 min 0 min 0 W/m 0,0 km/h (0 Bft) 93,62 %
20.08.2022 23:02 19,2 C 17,2 C 13,9 C 82 % 1017,8 hPa 0,0 l/m 0 min 0 min 0 W/m 0,0 km/h (0 Bft) 95,74 %
20.08.2022 23:04 19,1 C 17,2 C 13,9 C 82 % 1017,8 hPa 0,0 l/m 0 min 0 min 0 W/m 0,0 km/h (0 Bft) 95,74 %
20.08.2022 23:06 19,1 C 17,2 C 13,9 C 82 % 1017,8 hPa 0,0 l/m 0 min 0 min 0 W/m 0,0 km/h (0 Bft) 91,49 %
20.08.2022 23:08 19,1 C 17,2 C 13,9 C 82 % 1017,8 hPa 0,0 l/m 0 min 0 min 0 W/m 0,0 km/h (0 Bft) 95,65 %
20.08.2022 23:10 18,9 C 17,2 C 13,9 C 82 % 1017,8 hPa 0,0 l/m 0 min 0 min 0 W/m 0,0 km/h (0 Bft) 95,74 %
20.08.2022 23:12 18,9 C 17,2 C 13,9 C 82 % 1017,8 hPa 0,0 l/m 0 min 0 min 0 W/m 0,0 km/h (0 Bft) 93,62 %
20.08.2022 23:14 18,9 C 17,2 C 13,9 C 82 % 1017,8 hPa 0,0 l/m 0 min 0 min 0 W/m 0,0 km/h (0 Bft) 95,74 %
20.08.2022 23:16 18,8 C 17,2 C 13,9 C 83 % 1017,8 hPa 0,0 l/m 0 min 0 min 0 W/m 0,0 km/h (0 Bft) 92,86 %
20.08.2022 23:18 18,8 C 16,7 C 13,9 C 83 % 1017,8 hPa 0,0 l/m 0 min 0 min 0 W/m 0,0 km/h (0 Bft) 91,49 %
20.08.2022 23:20 18,8 C 16,7 C 13,9 C 83 % 1017,8 hPa 0,0 l/m 0 min 0 min 0 W/m 0,0 km/h (0 Bft) 95,74 %
20.08.2022 23:22 18,8 C 16,7 C 13,3 C 83 % 1017,8 hPa 0,0 l/m 0 min 0 min 0 W/m 3,2 km/h (1 Bft) 93,62 %
20.08.2022 23:24 18,7 C 16,7 C 13,3 C 84 % 1017,9 hPa 0,0 l/m 0 min 0 min 0 W/m 3,2 km/h (1 Bft) 95,92 %
20.08.2022 23:26 18,7 C 16,7 C 13,3 C 84 % 1017,9 hPa 0,0 l/m 0 min 0 min 0 W/m 3,2 km/h (1 Bft) 95,74 %
20.08.2022 23:28 18,7 C 16,7 C 13,3 C 84 % 1017,9 hPa 0,0 l/m 0 min 0 min 0 W/m 3,2 km/h (1 Bft) 95,74 %
20.08.2022 23:30 18,6 C 16,7 C 13,3 C 84 % 1017,9 hPa 0,0 l/m 0 min 0 min 0 W/m 3,2 km/h (1 Bft) 93,62 %
20.08.2022 23:32 18,6 C 16,7 C 13,3 C 84 % 1017,9 hPa 0,0 l/m 0 min 0 min 0 W/m 3,2 km/h (1 Bft) 97,92 %
20.08.2022 23:34 18,6 C 16,7 C 13,3 C 84 % 1017,9 hPa 0,0 l/m 0 min 0 min 0 W/m 3,2 km/h (1 Bft) 95,74 %
20.08.2022 23:36 18,5 C 16,7 C 13,3 C 84 % 1018,0 hPa 0,0 l/m 0 min 0 min 0 W/m 3,2 km/h (1 Bft) 95,74 %
20.08.2022 23:38 18,4 C 16,7 C 13,3 C 84 % 1017,9 hPa 0,0 l/m 0 min 0 min 0 W/m 0,0 km/h (0 Bft) 95,74 %
20.08.2022 23:40 18,4 C 16,7 C 13,3 C 84 % 1017,9 hPa 0,0 l/m 0 min 0 min 0 W/m 0,0 km/h (0 Bft) 93,62 %
20.08.2022 23:42 18,4 C 16,7 C 13,3 C 84 % 1017,9 hPa 0,0 l/m 0 min 0 min 0 W/m 3,2 km/h (1 Bft) 95,74 %
20.08.2022 23:44 18,3 C 16,7 C 13,3 C 84 % 1017,9 hPa 0,0 l/m 0 min 0 min 0 W/m 0,0 km/h (0 Bft) 97,83 %
20.08.2022 23:46 18,3 C 16,7 C 13,3 C 84 % 1017,9 hPa 0,0 l/m 0 min 0 min 0 W/m 0,0 km/h (0 Bft) 95,74 %
20.08.2022 23:48 18,3 C 16,7 C 13,3 C 84 % 1017,9 hPa 0,0 l/m 0 min 0 min 0 W/m 0,0 km/h (0 Bft) 100,00 %
20.08.2022 23:50 18,2 C 16,7 C 13,3 C 85 % 1017,9 hPa 0,0 l/m 0 min 0 min 0 W/m 0,0 km/h (0 Bft) 100,00 %
20.08.2022 23:52 18,2 C 16,7 C 13,3 C 85 % 1017,9 hPa 0,0 l/m 0 min 0 min 0 W/m 0,0 km/h (0 Bft) 100,00 %
20.08.2022 23:54 18,2 C 16,7 C 13,3 C 85 % 1017,9 hPa 0,0 l/m 0 min 0 min 0 W/m 3,2 km/h (1 Bft) 97,87 %
20.08.2022 23:56 18,1 C 16,7 C 13,3 C 85 % 1017,9 hPa 0,0 l/m 0 min 0 min 0 W/m 3,2 km/h (1 Bft) 100,00 %
20.08.2022 23:58 18,1 C 16,7 C 13,3 C 85 % 1017,9 hPa 0,0 l/m 0 min 0 min 0 W/m 0,0 km/h (0 Bft) 100,00 %
_ Min-Zeit 23:56 23:18 23:22 17:36 02:58 - - - - 00:12 09:36
Minimum _ 18,1 C 16,7 C 13,3 C 59 % 1015,3 hPa - - - - 0,0 km/h (0 Bft) 83,33 %
_ Max-Zeit 17:34 14:26 17:24 07:16 21:58 06:08 18:52 06:08 14:18 16:20 00:00
Maximum _ 25,6 C 30,6 C 21,1 C 99 % 1018,0 hPa 1,4 l/m 5 min 4 min 924 W/m 22,5 km/h
S-SO (4 Bft)
100,00 %
Durchschnitt _ 20,8 C 20,7 C 16,3 C 85 % 1016,8 hPa #13,4 l/m #4:49 h #2:56 h 293 W/m 6,5 km/h (2 Bft) 97,61 %
© 2022 W. Hausmann